<?xml version="1.0" encoding="UTF-8" standalone="no" ?>
<gpx xmlns="http://www.topografix.com/GPX/1/1" xmlns:xsi="http://www.w3.org/2001/XMLSchema-instance" xsi:schemaLocation="http://www.topografix.com/GPX/1/1 http://www.topografix.com/GPX/1/1/gpx.xsd" version="1.1" creator="VisuGPX - https://www.visugpx.com">
  <metadata>
    <name>Sortie Ronce les bains 14012018</name>
    <desc><![CDATA[Sortie Ronce les bains 14012018 Sortie Ronce les bains 14012018]]></desc>
  </metadata>
  <wpt lat="45.75698" lon="-1.21999">
    <ele>70.428635</ele>
    <name><![CDATA[Point de cheminement 1]]></name>
  </wpt>
  <trk>
    <name><![CDATA[Ronce 14 janvier 2018]]></name>
    <cmt><![CDATA[Vélo (10,0 m | 5 s | 100,0 m)]]></cmt>
    <trkseg>
      <trkpt lat="45.79332" lon="-1.16295">
        <ele>23.942381</ele>
        <time>2018-01-14T08:08:42.372Z</time>
      </trkpt>
      <trkpt lat="45.79328" lon="-1.16283">
        <ele>52.940647</ele>
        <time>2018-01-14T08:10:25.660Z</time>
      </trkpt>
      <trkpt lat="45.79325" lon="-1.1627">
        <ele>53.16848</ele>
        <time>2018-01-14T08:10:30.674Z</time>
      </trkpt>
      <trkpt lat="45.79321" lon="-1.16245">
        <ele>53.819225</ele>
        <time>2018-01-14T08:10:38.675Z</time>
      </trkpt>
      <trkpt lat="45.7932" lon="-1.16228">
        <ele>53.908772</ele>
        <time>2018-01-14T08:10:43.710Z</time>
      </trkpt>
      <trkpt lat="45.79313" lon="-1.16203">
        <ele>53.732452</ele>
        <time>2018-01-14T08:10:51.657Z</time>
      </trkpt>
      <trkpt lat="45.79303" lon="-1.16181">
        <ele>53.327454</ele>
        <time>2018-01-14T08:10:59.659Z</time>
      </trkpt>
      <trkpt lat="45.79292" lon="-1.16185">
        <ele>53.213234</ele>
        <time>2018-01-14T08:11:10.714Z</time>
      </trkpt>
      <trkpt lat="45.79296" lon="-1.16215">
        <ele>54.011162</ele>
        <time>2018-01-14T08:11:18.658Z</time>
      </trkpt>
      <trkpt lat="45.79303" lon="-1.16243">
        <ele>54.747219</ele>
        <time>2018-01-14T08:11:26.334Z</time>
      </trkpt>
      <trkpt lat="45.79309" lon="-1.16268">
        <ele>55.008598</ele>
        <time>2018-01-14T08:11:32.678Z</time>
      </trkpt>
      <trkpt lat="45.79312" lon="-1.16295">
        <ele>55.466877</ele>
        <time>2018-01-14T08:11:38.679Z</time>
      </trkpt>
      <trkpt lat="45.79314" lon="-1.16322">
        <ele>56.117035</ele>
        <time>2018-01-14T08:11:44.678Z</time>
      </trkpt>
      <trkpt lat="45.79313" lon="-1.16349">
        <ele>56.376263</ele>
        <time>2018-01-14T08:11:50.669Z</time>
      </trkpt>
      <trkpt lat="45.79309" lon="-1.16376">
        <ele>56.371918</ele>
        <time>2018-01-14T08:11:56.703Z</time>
      </trkpt>
      <trkpt lat="45.79303" lon="-1.16404">
        <ele>55.475677</ele>
        <time>2018-01-14T08:12:03.670Z</time>
      </trkpt>
      <trkpt lat="45.79306" lon="-1.16433">
        <ele>55.138096</ele>
        <time>2018-01-14T08:12:10.678Z</time>
      </trkpt>
      <trkpt lat="45.79302" lon="-1.16463">
        <ele>55.068172</ele>
        <time>2018-01-14T08:12:19.660Z</time>
      </trkpt>
      <trkpt lat="45.79296" lon="-1.16495">
        <ele>55.44968</ele>
        <time>2018-01-14T08:12:26.651Z</time>
      </trkpt>
      <trkpt lat="45.79307" lon="-1.16518">
        <ele>56.093369</ele>
        <time>2018-01-14T08:12:33.667Z</time>
      </trkpt>
      <trkpt lat="45.79314" lon="-1.16531">
        <ele>56.577065</ele>
        <time>2018-01-14T08:12:38.676Z</time>
      </trkpt>
      <trkpt lat="45.7931" lon="-1.16543">
        <ele>57.097584</ele>
        <time>2018-01-14T08:12:43.694Z</time>
      </trkpt>
      <trkpt lat="45.79303" lon="-1.16572">
        <ele>58.098293</ele>
        <time>2018-01-14T08:12:49.780Z</time>
      </trkpt>
      <trkpt lat="45.79321" lon="-1.16587">
        <ele>61.508518</ele>
        <time>2018-01-14T08:12:57.926Z</time>
      </trkpt>
      <trkpt lat="45.79322" lon="-1.16617">
        <ele>61.246227</ele>
        <time>2018-01-14T08:13:03.680Z</time>
      </trkpt>
      <trkpt lat="45.7931" lon="-1.16641">
        <ele>60.602459</ele>
        <time>2018-01-14T08:13:09.679Z</time>
      </trkpt>
      <trkpt lat="45.79281" lon="-1.16669">
        <ele>57.598297</ele>
        <time>2018-01-14T08:13:16.689Z</time>
      </trkpt>
      <trkpt lat="45.79279" lon="-1.16717">
        <ele>56.015518</ele>
        <time>2018-01-14T08:13:23.674Z</time>
      </trkpt>
      <trkpt lat="45.7926" lon="-1.16745">
        <ele>54.845646</ele>
        <time>2018-01-14T08:13:30.685Z</time>
      </trkpt>
      <trkpt lat="45.79238" lon="-1.16736">
        <ele>54.578888</ele>
        <time>2018-01-14T08:13:36.658Z</time>
      </trkpt>
      <trkpt lat="45.79216" lon="-1.16739">
        <ele>54.948402</ele>
        <time>2018-01-14T08:13:42.647Z</time>
      </trkpt>
      <trkpt lat="45.79197" lon="-1.16748">
        <ele>54.488811</ele>
        <time>2018-01-14T08:13:48.655Z</time>
      </trkpt>
      <trkpt lat="45.79183" lon="-1.16777">
        <ele>54.132244</ele>
        <time>2018-01-14T08:13:54.685Z</time>
      </trkpt>
      <trkpt lat="45.79172" lon="-1.16804">
        <ele>55.686802</ele>
        <time>2018-01-14T08:14:00.784Z</time>
      </trkpt>
      <trkpt lat="45.7916" lon="-1.16827">
        <ele>55.969906</ele>
        <time>2018-01-14T08:14:07.685Z</time>
      </trkpt>
      <trkpt lat="45.79148" lon="-1.16849">
        <ele>56.499832</ele>
        <time>2018-01-14T08:14:14.683Z</time>
      </trkpt>
      <trkpt lat="45.79141" lon="-1.16878">
        <ele>57.236443</ele>
        <time>2018-01-14T08:14:23.702Z</time>
      </trkpt>
      <trkpt lat="45.7913" lon="-1.16904">
        <ele>57.987873</ele>
        <time>2018-01-14T08:14:30.655Z</time>
      </trkpt>
      <trkpt lat="45.79126" lon="-1.16919">
        <ele>58.408592</ele>
        <time>2018-01-14T08:14:35.710Z</time>
      </trkpt>
      <trkpt lat="45.79115" lon="-1.16947">
        <ele>58.802391</ele>
        <time>2018-01-14T08:14:41.682Z</time>
      </trkpt>
      <trkpt lat="45.79107" lon="-1.16974">
        <ele>58.738876</ele>
        <time>2018-01-14T08:14:47.668Z</time>
      </trkpt>
      <trkpt lat="45.79095" lon="-1.17006">
        <ele>58.557804</ele>
        <time>2018-01-14T08:14:54.669Z</time>
      </trkpt>
      <trkpt lat="45.79085" lon="-1.17033">
        <ele>58.991512</ele>
        <time>2018-01-14T08:15:00.695Z</time>
      </trkpt>
      <trkpt lat="45.79075" lon="-1.17064">
        <ele>59.277607</ele>
        <time>2018-01-14T08:15:06.664Z</time>
      </trkpt>
      <trkpt lat="45.79067" lon="-1.17093">
        <ele>59.056084</ele>
        <time>2018-01-14T08:15:13.694Z</time>
      </trkpt>
      <trkpt lat="45.79054" lon="-1.17121">
        <ele>58.920559</ele>
        <time>2018-01-14T08:15:19.667Z</time>
      </trkpt>
      <trkpt lat="45.7904" lon="-1.17149">
        <ele>58.682827</ele>
        <time>2018-01-14T08:15:25.678Z</time>
      </trkpt>
      <trkpt lat="45.79029" lon="-1.17172">
        <ele>58.999214</ele>
        <time>2018-01-14T08:15:35.718Z</time>
      </trkpt>
      <trkpt lat="45.79022" lon="-1.17205">
        <ele>59.61195</ele>
        <time>2018-01-14T08:15:41.679Z</time>
      </trkpt>
      <trkpt lat="45.79013" lon="-1.17233">
        <ele>60.034824</ele>
        <time>2018-01-14T08:15:47.679Z</time>
      </trkpt>
      <trkpt lat="45.79004" lon="-1.17261">
        <ele>60.276562</ele>
        <time>2018-01-14T08:15:53.671Z</time>
      </trkpt>
      <trkpt lat="45.78993" lon="-1.17286">
        <ele>60.068733</ele>
        <time>2018-01-14T08:16:01.655Z</time>
      </trkpt>
      <trkpt lat="45.78982" lon="-1.17313">
        <ele>60.151627</ele>
        <time>2018-01-14T08:16:09.736Z</time>
      </trkpt>
      <trkpt lat="45.78974" lon="-1.1734">
        <ele>60.615074</ele>
        <time>2018-01-14T08:16:16.691Z</time>
      </trkpt>
      <trkpt lat="45.7897" lon="-1.17369">
        <ele>60.993214</ele>
        <time>2018-01-14T08:16:22.693Z</time>
      </trkpt>
      <trkpt lat="45.78964" lon="-1.17396">
        <ele>61.832497</ele>
        <time>2018-01-14T08:16:31.668Z</time>
      </trkpt>
      <trkpt lat="45.78952" lon="-1.17422">
        <ele>61.812485</ele>
        <time>2018-01-14T08:16:37.674Z</time>
      </trkpt>
      <trkpt lat="45.78943" lon="-1.17448">
        <ele>61.642345</ele>
        <time>2018-01-14T08:16:44.715Z</time>
      </trkpt>
      <trkpt lat="45.78931" lon="-1.17478">
        <ele>61.688236</ele>
        <time>2018-01-14T08:16:52.697Z</time>
      </trkpt>
      <trkpt lat="45.78922" lon="-1.17501">
        <ele>62.101021</ele>
        <time>2018-01-14T08:16:58.709Z</time>
      </trkpt>
      <trkpt lat="45.78909" lon="-1.17544">
        <ele>62.541111</ele>
        <time>2018-01-14T08:17:07.686Z</time>
      </trkpt>
      <trkpt lat="45.78895" lon="-1.17572">
        <ele>62.461914</ele>
        <time>2018-01-14T08:17:13.686Z</time>
      </trkpt>
      <trkpt lat="45.78884" lon="-1.17597">
        <ele>62.183273</ele>
        <time>2018-01-14T08:17:21.656Z</time>
      </trkpt>
      <trkpt lat="45.78875" lon="-1.17623">
        <ele>61.957325</ele>
        <time>2018-01-14T08:17:28.672Z</time>
      </trkpt>
      <trkpt lat="45.7887" lon="-1.1765">
        <ele>62.09222</ele>
        <time>2018-01-14T08:17:34.684Z</time>
      </trkpt>
      <trkpt lat="45.78859" lon="-1.17674">
        <ele>62.251114</ele>
        <time>2018-01-14T08:17:40.684Z</time>
      </trkpt>
      <trkpt lat="45.78848" lon="-1.177">
        <ele>62.755009</ele>
        <time>2018-01-14T08:17:50.707Z</time>
      </trkpt>
      <trkpt lat="45.78845" lon="-1.17713">
        <ele>62.34716</ele>
        <time>2018-01-14T08:18:01.679Z</time>
      </trkpt>
      <trkpt lat="45.78842" lon="-1.17725">
        <ele>62.07531</ele>
        <time>2018-01-14T08:18:10.683Z</time>
      </trkpt>
      <trkpt lat="45.78834" lon="-1.17755">
        <ele>61.848629</ele>
        <time>2018-01-14T08:18:18.723Z</time>
      </trkpt>
      <trkpt lat="45.78829" lon="-1.1778">
        <ele>62.143299</ele>
        <time>2018-01-14T08:18:24.695Z</time>
      </trkpt>
      <trkpt lat="45.78816" lon="-1.17811">
        <ele>63.448727</ele>
        <time>2018-01-14T08:18:30.694Z</time>
      </trkpt>
      <trkpt lat="45.78806" lon="-1.17836">
        <ele>64.016197</ele>
        <time>2018-01-14T08:18:36.655Z</time>
      </trkpt>
      <trkpt lat="45.78795" lon="-1.17863">
        <ele>64.962173</ele>
        <time>2018-01-14T08:18:41.739Z</time>
      </trkpt>
      <trkpt lat="45.78788" lon="-1.17891">
        <ele>64.820816</ele>
        <time>2018-01-14T08:18:47.792Z</time>
      </trkpt>
      <trkpt lat="45.78785" lon="-1.17922">
        <ele>64.272545</ele>
        <time>2018-01-14T08:18:54.656Z</time>
      </trkpt>
      <trkpt lat="45.7877" lon="-1.17947">
        <ele>64.225662</ele>
        <time>2018-01-14T08:19:00.645Z</time>
      </trkpt>
      <trkpt lat="45.78755" lon="-1.17984">
        <ele>61.552979</ele>
        <time>2018-01-14T08:19:06.715Z</time>
      </trkpt>
      <trkpt lat="45.78739" lon="-1.18029">
        <ele>59.14035</ele>
        <time>2018-01-14T08:19:14.673Z</time>
      </trkpt>
      <trkpt lat="45.78734" lon="-1.18058">
        <ele>58.588081</ele>
        <time>2018-01-14T08:19:21.660Z</time>
      </trkpt>
      <trkpt lat="45.78729" lon="-1.18084">
        <ele>58.645813</ele>
        <time>2018-01-14T08:19:28.654Z</time>
      </trkpt>
      <trkpt lat="45.78712" lon="-1.18101">
        <ele>58.890121</ele>
        <time>2018-01-14T08:19:36.665Z</time>
      </trkpt>
      <trkpt lat="45.78701" lon="-1.18127">
        <ele>59.546158</ele>
        <time>2018-01-14T08:19:42.685Z</time>
      </trkpt>
      <trkpt lat="45.78688" lon="-1.18159">
        <ele>60.158649</ele>
        <time>2018-01-14T08:19:48.763Z</time>
      </trkpt>
      <trkpt lat="45.78673" lon="-1.182">
        <ele>61.348507</ele>
        <time>2018-01-14T08:19:54.688Z</time>
      </trkpt>
      <trkpt lat="45.78662" lon="-1.1824">
        <ele>59.359802</ele>
        <time>2018-01-14T08:20:00.837Z</time>
      </trkpt>
      <trkpt lat="45.78653" lon="-1.18288">
        <ele>59.491898</ele>
        <time>2018-01-14T08:20:07.718Z</time>
      </trkpt>
      <trkpt lat="45.78648" lon="-1.18319">
        <ele>58.303619</ele>
        <time>2018-01-14T08:20:12.761Z</time>
      </trkpt>
      <trkpt lat="45.78646" lon="-1.18351">
        <ele>57.698017</ele>
        <time>2018-01-14T08:20:17.955Z</time>
      </trkpt>
      <trkpt lat="45.78642" lon="-1.18382">
        <ele>57.182354</ele>
        <time>2018-01-14T08:20:23.945Z</time>
      </trkpt>
      <trkpt lat="45.78646" lon="-1.18411">
        <ele>56.785267</ele>
        <time>2018-01-14T08:20:30.667Z</time>
      </trkpt>
      <trkpt lat="45.78648" lon="-1.18438">
        <ele>57.942291</ele>
        <time>2018-01-14T08:20:45.658Z</time>
      </trkpt>
      <trkpt lat="45.78653" lon="-1.18453">
        <ele>58.351677</ele>
        <time>2018-01-14T08:20:50.695Z</time>
      </trkpt>
      <trkpt lat="45.78663" lon="-1.18481">
        <ele>58.41143</ele>
        <time>2018-01-14T08:20:57.691Z</time>
      </trkpt>
      <trkpt lat="45.78671" lon="-1.18508">
        <ele>57.825333</ele>
        <time>2018-01-14T08:21:05.672Z</time>
      </trkpt>
      <trkpt lat="45.78674" lon="-1.18521">
        <ele>57.573986</ele>
        <time>2018-01-14T08:21:12.669Z</time>
      </trkpt>
      <trkpt lat="45.78675" lon="-1.18549">
        <ele>57.11377</ele>
        <time>2018-01-14T08:21:25.690Z</time>
      </trkpt>
      <trkpt lat="45.78689" lon="-1.18577">
        <ele>56.86021</ele>
        <time>2018-01-14T08:21:32.887Z</time>
      </trkpt>
      <trkpt lat="45.78694" lon="-1.18588">
        <ele>57.311577</ele>
        <time>2018-01-14T08:21:39.675Z</time>
      </trkpt>
      <trkpt lat="45.7871" lon="-1.18602">
        <ele>57.893513</ele>
        <time>2018-01-14T08:21:46.712Z</time>
      </trkpt>
      <trkpt lat="45.78722" lon="-1.18624">
        <ele>57.910427</ele>
        <time>2018-01-14T08:21:53.661Z</time>
      </trkpt>
      <trkpt lat="45.78728" lon="-1.18649">
        <ele>57.826401</ele>
        <time>2018-01-14T08:22:00.799Z</time>
      </trkpt>
      <trkpt lat="45.78745" lon="-1.18667">
        <ele>56.325741</ele>
        <time>2018-01-14T08:22:06.651Z</time>
      </trkpt>
      <trkpt lat="45.78757" lon="-1.18688">
        <ele>56.001827</ele>
        <time>2018-01-14T08:22:11.675Z</time>
      </trkpt>
      <trkpt lat="45.78772" lon="-1.18712">
        <ele>55.773373</ele>
        <time>2018-01-14T08:22:17.699Z</time>
      </trkpt>
      <trkpt lat="45.78787" lon="-1.1873">
        <ele>55.887497</ele>
        <time>2018-01-14T08:22:24.658Z</time>
      </trkpt>
      <trkpt lat="45.78805" lon="-1.18749">
        <ele>55.970047</ele>
        <time>2018-01-14T08:22:32.699Z</time>
      </trkpt>
      <trkpt lat="45.78818" lon="-1.18771">
        <ele>56.06123</ele>
        <time>2018-01-14T08:22:40.653Z</time>
      </trkpt>
      <trkpt lat="45.78835" lon="-1.18783">
        <ele>56.490311</ele>
        <time>2018-01-14T08:22:48.673Z</time>
      </trkpt>
      <trkpt lat="45.78842" lon="-1.18813">
        <ele>56.956593</ele>
        <time>2018-01-14T08:22:57.708Z</time>
      </trkpt>
      <trkpt lat="45.78854" lon="-1.18843">
        <ele>58.308464</ele>
        <time>2018-01-14T08:23:06.663Z</time>
      </trkpt>
      <trkpt lat="45.78863" lon="-1.18873">
        <ele>58.239986</ele>
        <time>2018-01-14T08:23:11.682Z</time>
      </trkpt>
      <trkpt lat="45.7887" lon="-1.18899">
        <ele>57.45446</ele>
        <time>2018-01-14T08:23:18.646Z</time>
      </trkpt>
      <trkpt lat="45.78874" lon="-1.18931">
        <ele>57.165848</ele>
        <time>2018-01-14T08:23:24.678Z</time>
      </trkpt>
      <trkpt lat="45.78877" lon="-1.18963">
        <ele>57.247257</ele>
        <time>2018-01-14T08:23:30.669Z</time>
      </trkpt>
      <trkpt lat="45.78878" lon="-1.18991">
        <ele>56.975883</ele>
        <time>2018-01-14T08:23:36.674Z</time>
      </trkpt>
      <trkpt lat="45.78879" lon="-1.19022">
        <ele>57.269287</ele>
        <time>2018-01-14T08:23:43.670Z</time>
      </trkpt>
      <trkpt lat="45.7888" lon="-1.19035">
        <ele>57.467907</ele>
        <time>2018-01-14T08:23:50.727Z</time>
      </trkpt>
      <trkpt lat="45.78878" lon="-1.19063">
        <ele>58.391479</ele>
        <time>2018-01-14T08:23:57.658Z</time>
      </trkpt>
      <trkpt lat="45.78877" lon="-1.19108">
        <ele>60.630318</ele>
        <time>2018-01-14T08:24:05.672Z</time>
      </trkpt>
      <trkpt lat="45.78876" lon="-1.19142">
        <ele>60.307587</ele>
        <time>2018-01-14T08:24:10.676Z</time>
      </trkpt>
      <trkpt lat="45.78874" lon="-1.19189">
        <ele>58.296478</ele>
        <time>2018-01-14T08:24:17.687Z</time>
      </trkpt>
      <trkpt lat="45.78871" lon="-1.19221">
        <ele>57.142887</ele>
        <time>2018-01-14T08:24:22.795Z</time>
      </trkpt>
      <trkpt lat="45.78867" lon="-1.19252">
        <ele>56.448036</ele>
        <time>2018-01-14T08:24:28.661Z</time>
      </trkpt>
      <trkpt lat="45.78868" lon="-1.19282">
        <ele>57.086674</ele>
        <time>2018-01-14T08:24:39.662Z</time>
      </trkpt>
      <trkpt lat="45.7888" lon="-1.19279">
        <ele>56.882572</ele>
        <time>2018-01-14T08:24:45.664Z</time>
      </trkpt>
      <trkpt lat="45.78896" lon="-1.19253">
        <ele>55.609791</ele>
        <time>2018-01-14T08:24:51.711Z</time>
      </trkpt>
      <trkpt lat="45.78916" lon="-1.19235">
        <ele>54.643002</ele>
        <time>2018-01-14T08:24:57.679Z</time>
      </trkpt>
      <trkpt lat="45.78928" lon="-1.19258">
        <ele>54.971054</ele>
        <time>2018-01-14T08:25:04.688Z</time>
      </trkpt>
      <trkpt lat="45.78928" lon="-1.19285">
        <ele>55.188927</ele>
        <time>2018-01-14T08:25:10.658Z</time>
      </trkpt>
      <trkpt lat="45.78925" lon="-1.19311">
        <ele>55.603355</ele>
        <time>2018-01-14T08:25:18.642Z</time>
      </trkpt>
      <trkpt lat="45.78934" lon="-1.19334">
        <ele>56.400517</ele>
        <time>2018-01-14T08:25:25.685Z</time>
      </trkpt>
      <trkpt lat="45.78937" lon="-1.19366">
        <ele>55.680359</ele>
        <time>2018-01-14T08:25:30.688Z</time>
      </trkpt>
      <trkpt lat="45.78938" lon="-1.19394">
        <ele>55.658226</ele>
        <time>2018-01-14T08:25:36.685Z</time>
      </trkpt>
      <trkpt lat="45.78941" lon="-1.19419">
        <ele>55.488178</ele>
        <time>2018-01-14T08:25:42.690Z</time>
      </trkpt>
      <trkpt lat="45.78938" lon="-1.19449">
        <ele>55.710846</ele>
        <time>2018-01-14T08:25:50.669Z</time>
      </trkpt>
      <trkpt lat="45.7894" lon="-1.19461">
        <ele>55.93071</ele>
        <time>2018-01-14T08:25:55.671Z</time>
      </trkpt>
      <trkpt lat="45.78935" lon="-1.19491">
        <ele>55.890221</ele>
        <time>2018-01-14T08:26:04.668Z</time>
      </trkpt>
      <trkpt lat="45.78935" lon="-1.19519">
        <ele>56.168205</ele>
        <time>2018-01-14T08:26:10.647Z</time>
      </trkpt>
      <trkpt lat="45.7894" lon="-1.19548">
        <ele>56.356541</ele>
        <time>2018-01-14T08:26:18.650Z</time>
      </trkpt>
      <trkpt lat="45.78938" lon="-1.19576">
        <ele>56.714474</ele>
        <time>2018-01-14T08:26:26.677Z</time>
      </trkpt>
      <trkpt lat="45.78942" lon="-1.19607">
        <ele>56.821106</ele>
        <time>2018-01-14T08:26:31.679Z</time>
      </trkpt>
      <trkpt lat="45.78938" lon="-1.19631">
        <ele>56.836826</ele>
        <time>2018-01-14T08:26:38.033Z</time>
      </trkpt>
      <trkpt lat="45.78946" lon="-1.19655">
        <ele>57.200195</ele>
        <time>2018-01-14T08:26:43.678Z</time>
      </trkpt>
      <trkpt lat="45.78943" lon="-1.19681">
        <ele>57.232368</ele>
        <time>2018-01-14T08:26:49.710Z</time>
      </trkpt>
      <trkpt lat="45.7894" lon="-1.1971">
        <ele>56.580959</ele>
        <time>2018-01-14T08:26:56.669Z</time>
      </trkpt>
      <trkpt lat="45.78941" lon="-1.1974">
        <ele>55.254276</ele>
        <time>2018-01-14T08:27:03.695Z</time>
      </trkpt>
      <trkpt lat="45.78939" lon="-1.19767">
        <ele>54.573212</ele>
        <time>2018-01-14T08:27:09.663Z</time>
      </trkpt>
      <trkpt lat="45.78939" lon="-1.19797">
        <ele>54.170673</ele>
        <time>2018-01-14T08:27:15.795Z</time>
      </trkpt>
      <trkpt lat="45.78946" lon="-1.19828">
        <ele>53.81633</ele>
        <time>2018-01-14T08:27:22.650Z</time>
      </trkpt>
      <trkpt lat="45.78952" lon="-1.19858">
        <ele>53.978676</ele>
        <time>2018-01-14T08:27:29.674Z</time>
      </trkpt>
      <trkpt lat="45.78962" lon="-1.19897">
        <ele>53.243168</ele>
        <time>2018-01-14T08:27:37.667Z</time>
      </trkpt>
      <trkpt lat="45.78962" lon="-1.19924">
        <ele>52.447731</ele>
        <time>2018-01-14T08:27:43.796Z</time>
      </trkpt>
      <trkpt lat="45.78971" lon="-1.1995">
        <ele>52.988861</ele>
        <time>2018-01-14T08:27:51.765Z</time>
      </trkpt>
      <trkpt lat="45.7898" lon="-1.19979">
        <ele>54.016987</ele>
        <time>2018-01-14T08:27:59.679Z</time>
      </trkpt>
      <trkpt lat="45.78988" lon="-1.20003">
        <ele>54.441216</ele>
        <time>2018-01-14T08:28:05.681Z</time>
      </trkpt>
      <trkpt lat="45.78995" lon="-1.20035">
        <ele>54.565639</ele>
        <time>2018-01-14T08:28:13.660Z</time>
      </trkpt>
      <trkpt lat="45.79013" lon="-1.20041">
        <ele>54.800175</ele>
        <time>2018-01-14T08:28:21.660Z</time>
      </trkpt>
      <trkpt lat="45.7904" lon="-1.20037">
        <ele>54.692928</ele>
        <time>2018-01-14T08:28:27.709Z</time>
      </trkpt>
      <trkpt lat="45.79069" lon="-1.20035">
        <ele>53.164268</ele>
        <time>2018-01-14T08:28:34.685Z</time>
      </trkpt>
      <trkpt lat="45.79085" lon="-1.20067">
        <ele>51.314404</ele>
        <time>2018-01-14T08:28:42.725Z</time>
      </trkpt>
      <trkpt lat="45.79095" lon="-1.20067">
        <ele>51.256844</ele>
        <time>2018-01-14T08:28:48.717Z</time>
      </trkpt>
      <trkpt lat="45.79105" lon="-1.2009">
        <ele>51.496021</ele>
        <time>2018-01-14T08:28:55.683Z</time>
      </trkpt>
      <trkpt lat="45.79112" lon="-1.20119">
        <ele>51.589153</ele>
        <time>2018-01-14T08:29:01.910Z</time>
      </trkpt>
      <trkpt lat="45.79121" lon="-1.20148">
        <ele>51.585346</ele>
        <time>2018-01-14T08:29:08.648Z</time>
      </trkpt>
      <trkpt lat="45.79123" lon="-1.20178">
        <ele>51.467476</ele>
        <time>2018-01-14T08:29:14.797Z</time>
      </trkpt>
      <trkpt lat="45.79107" lon="-1.20194">
        <ele>51.851894</ele>
        <time>2018-01-14T08:29:23.669Z</time>
      </trkpt>
      <trkpt lat="45.79108" lon="-1.20227">
        <ele>52.003853</ele>
        <time>2018-01-14T08:29:29.669Z</time>
      </trkpt>
      <trkpt lat="45.7912" lon="-1.20253">
        <ele>52.146671</ele>
        <time>2018-01-14T08:29:36.686Z</time>
      </trkpt>
      <trkpt lat="45.79136" lon="-1.2027">
        <ele>52.489597</ele>
        <time>2018-01-14T08:29:44.655Z</time>
      </trkpt>
      <trkpt lat="45.7915" lon="-1.20294">
        <ele>52.350933</ele>
        <time>2018-01-14T08:29:52.692Z</time>
      </trkpt>
      <trkpt lat="45.7916" lon="-1.20298">
        <ele>51.801636</ele>
        <time>2018-01-14T08:29:58.754Z</time>
      </trkpt>
      <trkpt lat="45.79174" lon="-1.20318">
        <ele>51.4091</ele>
        <time>2018-01-14T08:30:05.890Z</time>
      </trkpt>
      <trkpt lat="45.79186" lon="-1.2034">
        <ele>51.90189</ele>
        <time>2018-01-14T08:30:11.708Z</time>
      </trkpt>
      <trkpt lat="45.79191" lon="-1.20356">
        <ele>52.377266</ele>
        <time>2018-01-14T08:30:16.776Z</time>
      </trkpt>
      <trkpt lat="45.7919" lon="-1.20388">
        <ele>52.752758</ele>
        <time>2018-01-14T08:30:22.838Z</time>
      </trkpt>
      <trkpt lat="45.79183" lon="-1.20414">
        <ele>52.748413</ele>
        <time>2018-01-14T08:30:31.709Z</time>
      </trkpt>
      <trkpt lat="45.79178" lon="-1.20447">
        <ele>53.305569</ele>
        <time>2018-01-14T08:30:38.818Z</time>
      </trkpt>
      <trkpt lat="45.79181" lon="-1.20472">
        <ele>53.809181</ele>
        <time>2018-01-14T08:30:48.716Z</time>
      </trkpt>
      <trkpt lat="45.79197" lon="-1.20488">
        <ele>53.924805</ele>
        <time>2018-01-14T08:30:56.677Z</time>
      </trkpt>
      <trkpt lat="45.79212" lon="-1.20506">
        <ele>53.559841</ele>
        <time>2018-01-14T08:31:04.981Z</time>
      </trkpt>
      <trkpt lat="45.79217" lon="-1.20532">
        <ele>53.58263</ele>
        <time>2018-01-14T08:31:11.901Z</time>
      </trkpt>
      <trkpt lat="45.79222" lon="-1.20563">
        <ele>54.27771</ele>
        <time>2018-01-14T08:31:18.716Z</time>
      </trkpt>
      <trkpt lat="45.79216" lon="-1.20591">
        <ele>54.530079</ele>
        <time>2018-01-14T08:31:25.678Z</time>
      </trkpt>
      <trkpt lat="45.79197" lon="-1.20609">
        <ele>54.334614</ele>
        <time>2018-01-14T08:31:31.728Z</time>
      </trkpt>
      <trkpt lat="45.79184" lon="-1.20629">
        <ele>54.366692</ele>
        <time>2018-01-14T08:31:41.684Z</time>
      </trkpt>
      <trkpt lat="45.79176" lon="-1.20657">
        <ele>54.848969</ele>
        <time>2018-01-14T08:31:48.665Z</time>
      </trkpt>
      <trkpt lat="45.7917" lon="-1.20683">
        <ele>55.904533</ele>
        <time>2018-01-14T08:31:56.655Z</time>
      </trkpt>
      <trkpt lat="45.79175" lon="-1.20712">
        <ele>57.630672</ele>
        <time>2018-01-14T08:32:02.666Z</time>
      </trkpt>
      <trkpt lat="45.79173" lon="-1.20752">
        <ele>58.641262</ele>
        <time>2018-01-14T08:32:12.668Z</time>
      </trkpt>
      <trkpt lat="45.79168" lon="-1.20781">
        <ele>57.091541</ele>
        <time>2018-01-14T08:32:20.657Z</time>
      </trkpt>
      <trkpt lat="45.79168" lon="-1.20796">
        <ele>56.92527</ele>
        <time>2018-01-14T08:32:26.709Z</time>
      </trkpt>
      <trkpt lat="45.79167" lon="-1.2081">
        <ele>56.87199</ele>
        <time>2018-01-14T08:32:33.684Z</time>
      </trkpt>
      <trkpt lat="45.79169" lon="-1.20841">
        <ele>56.366581</ele>
        <time>2018-01-14T08:32:40.693Z</time>
      </trkpt>
      <trkpt lat="45.79176" lon="-1.2087">
        <ele>55.806854</ele>
        <time>2018-01-14T08:32:48.692Z</time>
      </trkpt>
      <trkpt lat="45.79177" lon="-1.20897">
        <ele>55.4095</ele>
        <time>2018-01-14T08:32:57.658Z</time>
      </trkpt>
      <trkpt lat="45.79175" lon="-1.20925">
        <ele>55.719688</ele>
        <time>2018-01-14T08:33:05.666Z</time>
      </trkpt>
      <trkpt lat="45.79175" lon="-1.20952">
        <ele>56.391285</ele>
        <time>2018-01-14T08:33:12.663Z</time>
      </trkpt>
      <trkpt lat="45.79166" lon="-1.20982">
        <ele>57.455528</ele>
        <time>2018-01-14T08:33:18.655Z</time>
      </trkpt>
      <trkpt lat="45.79146" lon="-1.20997">
        <ele>58.802757</ele>
        <time>2018-01-14T08:33:25.652Z</time>
      </trkpt>
      <trkpt lat="45.79133" lon="-1.21024">
        <ele>58.217316</ele>
        <time>2018-01-14T08:33:32.661Z</time>
      </trkpt>
      <trkpt lat="45.79119" lon="-1.2105">
        <ele>58.088593</ele>
        <time>2018-01-14T08:33:38.647Z</time>
      </trkpt>
      <trkpt lat="45.79111" lon="-1.21079">
        <ele>57.702812</ele>
        <time>2018-01-14T08:33:44.640Z</time>
      </trkpt>
      <trkpt lat="45.79093" lon="-1.21094">
        <ele>56.70977</ele>
        <time>2018-01-14T08:33:51.692Z</time>
      </trkpt>
      <trkpt lat="45.79089" lon="-1.21125">
        <ele>56.030663</ele>
        <time>2018-01-14T08:33:59.654Z</time>
      </trkpt>
      <trkpt lat="45.79081" lon="-1.21132">
        <ele>55.593441</ele>
        <time>2018-01-14T08:34:05.664Z</time>
      </trkpt>
      <trkpt lat="45.79071" lon="-1.2113">
        <ele>54.259132</ele>
        <time>2018-01-14T08:34:12.683Z</time>
      </trkpt>
      <trkpt lat="45.7906" lon="-1.21127">
        <ele>53.533089</ele>
        <time>2018-01-14T08:34:18.704Z</time>
      </trkpt>
      <trkpt lat="45.79051" lon="-1.21154">
        <ele>52.840256</ele>
        <time>2018-01-14T08:34:26.664Z</time>
      </trkpt>
      <trkpt lat="45.79042" lon="-1.2118">
        <ele>52.711483</ele>
        <time>2018-01-14T08:34:32.649Z</time>
      </trkpt>
      <trkpt lat="45.79037" lon="-1.21208">
        <ele>53.372364</ele>
        <time>2018-01-14T08:34:38.677Z</time>
      </trkpt>
      <trkpt lat="45.79035" lon="-1.21236">
        <ele>54.151539</ele>
        <time>2018-01-14T08:34:47.670Z</time>
      </trkpt>
      <trkpt lat="45.79034" lon="-1.21251">
        <ele>54.876625</ele>
        <time>2018-01-14T08:34:53.673Z</time>
      </trkpt>
      <trkpt lat="45.79025" lon="-1.21279">
        <ele>55.290432</ele>
        <time>2018-01-14T08:34:59.667Z</time>
      </trkpt>
      <trkpt lat="45.79025" lon="-1.21313">
        <ele>55.337677</ele>
        <time>2018-01-14T08:35:06.651Z</time>
      </trkpt>
      <trkpt lat="45.79018" lon="-1.21339">
        <ele>55.415459</ele>
        <time>2018-01-14T08:35:28.666Z</time>
      </trkpt>
      <trkpt lat="45.79019" lon="-1.21354">
        <ele>55.063747</ele>
        <time>2018-01-14T08:35:36.670Z</time>
      </trkpt>
      <trkpt lat="45.79013" lon="-1.21382">
        <ele>54.645969</ele>
        <time>2018-01-14T08:35:45.663Z</time>
      </trkpt>
      <trkpt lat="45.79008" lon="-1.21411">
        <ele>54.70237</ele>
        <time>2018-01-14T08:35:52.648Z</time>
      </trkpt>
      <trkpt lat="45.78999" lon="-1.2144">
        <ele>54.342556</ele>
        <time>2018-01-14T08:35:58.673Z</time>
      </trkpt>
      <trkpt lat="45.78992" lon="-1.21468">
        <ele>54.632153</ele>
        <time>2018-01-14T08:36:05.712Z</time>
      </trkpt>
      <trkpt lat="45.78994" lon="-1.21509">
        <ele>54.22974</ele>
        <time>2018-01-14T08:36:15.708Z</time>
      </trkpt>
      <trkpt lat="45.78987" lon="-1.21538">
        <ele>57.263515</ele>
        <time>2018-01-14T08:40:55.696Z</time>
      </trkpt>
      <trkpt lat="45.78983" lon="-1.21566">
        <ele>56.950958</ele>
        <time>2018-01-14T08:41:03.673Z</time>
      </trkpt>
      <trkpt lat="45.78976" lon="-1.21599">
        <ele>56.697029</ele>
        <time>2018-01-14T08:41:10.656Z</time>
      </trkpt>
      <trkpt lat="45.78962" lon="-1.21619">
        <ele>55.697823</ele>
        <time>2018-01-14T08:41:17.936Z</time>
      </trkpt>
      <trkpt lat="45.78948" lon="-1.21662">
        <ele>53.215618</ele>
        <time>2018-01-14T08:41:25.716Z</time>
      </trkpt>
      <trkpt lat="45.78937" lon="-1.21682">
        <ele>52.664215</ele>
        <time>2018-01-14T08:41:31.716Z</time>
      </trkpt>
      <trkpt lat="45.7893" lon="-1.21711">
        <ele>52.729244</ele>
        <time>2018-01-14T08:41:42.639Z</time>
      </trkpt>
      <trkpt lat="45.78925" lon="-1.21738">
        <ele>53.603004</ele>
        <time>2018-01-14T08:41:50.643Z</time>
      </trkpt>
      <trkpt lat="45.78914" lon="-1.21764">
        <ele>54.46117</ele>
        <time>2018-01-14T08:41:56.718Z</time>
      </trkpt>
      <trkpt lat="45.78898" lon="-1.21788">
        <ele>54.382767</ele>
        <time>2018-01-14T08:42:02.647Z</time>
      </trkpt>
      <trkpt lat="45.78886" lon="-1.2181">
        <ele>55.0312</ele>
        <time>2018-01-14T08:42:08.642Z</time>
      </trkpt>
      <trkpt lat="45.78867" lon="-1.21815">
        <ele>55.100277</ele>
        <time>2018-01-14T08:42:14.663Z</time>
      </trkpt>
      <trkpt lat="45.78854" lon="-1.2183">
        <ele>54.855762</ele>
        <time>2018-01-14T08:42:22.646Z</time>
      </trkpt>
      <trkpt lat="45.78851" lon="-1.21848">
        <ele>54.510269</ele>
        <time>2018-01-14T08:42:29.686Z</time>
      </trkpt>
      <trkpt lat="45.78835" lon="-1.21874">
        <ele>54.138935</ele>
        <time>2018-01-14T08:42:41.666Z</time>
      </trkpt>
      <trkpt lat="45.78821" lon="-1.21899">
        <ele>54.088478</ele>
        <time>2018-01-14T08:42:48.662Z</time>
      </trkpt>
      <trkpt lat="45.78811" lon="-1.21909">
        <ele>53.903641</ele>
        <time>2018-01-14T08:42:53.687Z</time>
      </trkpt>
      <trkpt lat="45.78801" lon="-1.21935">
        <ele>53.170826</ele>
        <time>2018-01-14T08:42:58.699Z</time>
      </trkpt>
      <trkpt lat="45.78792" lon="-1.21959">
        <ele>52.973202</ele>
        <time>2018-01-14T08:43:04.672Z</time>
      </trkpt>
      <trkpt lat="45.78775" lon="-1.21973">
        <ele>53.249844</ele>
        <time>2018-01-14T08:43:10.678Z</time>
      </trkpt>
      <trkpt lat="45.78762" lon="-1.21991">
        <ele>53.351734</ele>
        <time>2018-01-14T08:43:17.668Z</time>
      </trkpt>
      <trkpt lat="45.78754" lon="-1.2202">
        <ele>53.372845</ele>
        <time>2018-01-14T08:43:23.678Z</time>
      </trkpt>
      <trkpt lat="45.78745" lon="-1.22045">
        <ele>53.341949</ele>
        <time>2018-01-14T08:43:31.669Z</time>
      </trkpt>
      <trkpt lat="45.78732" lon="-1.22066">
        <ele>53.998737</ele>
        <time>2018-01-14T08:43:38.643Z</time>
      </trkpt>
      <trkpt lat="45.78724" lon="-1.22089">
        <ele>54.18573</ele>
        <time>2018-01-14T08:43:45.661Z</time>
      </trkpt>
      <trkpt lat="45.78721" lon="-1.22104">
        <ele>54.623543</ele>
        <time>2018-01-14T08:43:50.679Z</time>
      </trkpt>
      <trkpt lat="45.78702" lon="-1.22109">
        <ele>55.539017</ele>
        <time>2018-01-14T08:43:57.680Z</time>
      </trkpt>
      <trkpt lat="45.78692" lon="-1.22135">
        <ele>56.395664</ele>
        <time>2018-01-14T08:44:06.681Z</time>
      </trkpt>
      <trkpt lat="45.78683" lon="-1.22165">
        <ele>56.190895</ele>
        <time>2018-01-14T08:44:14.688Z</time>
      </trkpt>
      <trkpt lat="45.78666" lon="-1.22177">
        <ele>55.546383</ele>
        <time>2018-01-14T08:44:23.686Z</time>
      </trkpt>
      <trkpt lat="45.78651" lon="-1.22197">
        <ele>55.15464</ele>
        <time>2018-01-14T08:44:31.671Z</time>
      </trkpt>
      <trkpt lat="45.78642" lon="-1.2222">
        <ele>54.643272</ele>
        <time>2018-01-14T08:44:38.657Z</time>
      </trkpt>
      <trkpt lat="45.78627" lon="-1.22237">
        <ele>54.505211</ele>
        <time>2018-01-14T08:44:43.728Z</time>
      </trkpt>
      <trkpt lat="45.78622" lon="-1.22263">
        <ele>54.325172</ele>
        <time>2018-01-14T08:44:49.716Z</time>
      </trkpt>
      <trkpt lat="45.7861" lon="-1.22288">
        <ele>54.332619</ele>
        <time>2018-01-14T08:44:59.671Z</time>
      </trkpt>
      <trkpt lat="45.78583" lon="-1.2231">
        <ele>54.534702</ele>
        <time>2018-01-14T08:45:07.659Z</time>
      </trkpt>
      <trkpt lat="45.78565" lon="-1.22342">
        <ele>54.99971</ele>
        <time>2018-01-14T08:45:14.649Z</time>
      </trkpt>
      <trkpt lat="45.78552" lon="-1.22365">
        <ele>55.405102</ele>
        <time>2018-01-14T08:45:21.712Z</time>
      </trkpt>
      <trkpt lat="45.78543" lon="-1.22371">
        <ele>55.541359</ele>
        <time>2018-01-14T08:45:27.844Z</time>
      </trkpt>
      <trkpt lat="45.78536" lon="-1.2238">
        <ele>57.953598</ele>
        <time>2018-01-14T08:47:05.666Z</time>
      </trkpt>
      <trkpt lat="45.78529" lon="-1.22392">
        <ele>58.491405</ele>
        <time>2018-01-14T08:47:11.694Z</time>
      </trkpt>
      <trkpt lat="45.78513" lon="-1.22413">
        <ele>58.708401</ele>
        <time>2018-01-14T08:47:20.647Z</time>
      </trkpt>
      <trkpt lat="45.785" lon="-1.22437">
        <ele>58.74247</ele>
        <time>2018-01-14T08:47:27.668Z</time>
      </trkpt>
      <trkpt lat="45.78488" lon="-1.22462">
        <ele>59.006668</ele>
        <time>2018-01-14T08:47:34.642Z</time>
      </trkpt>
      <trkpt lat="45.78471" lon="-1.22482">
        <ele>59.441998</ele>
        <time>2018-01-14T08:47:41.672Z</time>
      </trkpt>
      <trkpt lat="45.78457" lon="-1.22501">
        <ele>59.729351</ele>
        <time>2018-01-14T08:47:49.659Z</time>
      </trkpt>
      <trkpt lat="45.7846" lon="-1.22529">
        <ele>60.235027</ele>
        <time>2018-01-14T08:47:57.669Z</time>
      </trkpt>
      <trkpt lat="45.7845" lon="-1.22555">
        <ele>60.441124</ele>
        <time>2018-01-14T08:48:04.650Z</time>
      </trkpt>
      <trkpt lat="45.78446" lon="-1.22572">
        <ele>59.539738</ele>
        <time>2018-01-14T08:48:10.652Z</time>
      </trkpt>
      <trkpt lat="45.7843" lon="-1.22594">
        <ele>58.861309</ele>
        <time>2018-01-14T08:48:15.905Z</time>
      </trkpt>
      <trkpt lat="45.78407" lon="-1.22608">
        <ele>58.34779</ele>
        <time>2018-01-14T08:48:21.667Z</time>
      </trkpt>
      <trkpt lat="45.78386" lon="-1.22624">
        <ele>57.850491</ele>
        <time>2018-01-14T08:48:27.923Z</time>
      </trkpt>
      <trkpt lat="45.78359" lon="-1.22652">
        <ele>57.43</ele>
        <time>2018-01-14T08:48:34.647Z</time>
      </trkpt>
      <trkpt lat="45.78345" lon="-1.22675">
        <ele>56.80127</ele>
        <time>2018-01-14T08:48:39.653Z</time>
      </trkpt>
      <trkpt lat="45.78327" lon="-1.22697">
        <ele>56.615318</ele>
        <time>2018-01-14T08:48:45.661Z</time>
      </trkpt>
      <trkpt lat="45.78314" lon="-1.22721">
        <ele>56.533844</ele>
        <time>2018-01-14T08:48:51.694Z</time>
      </trkpt>
      <trkpt lat="45.78292" lon="-1.22737">
        <ele>56.366928</ele>
        <time>2018-01-14T08:48:58.776Z</time>
      </trkpt>
      <trkpt lat="45.78273" lon="-1.22747">
        <ele>56.835735</ele>
        <time>2018-01-14T08:49:05.666Z</time>
      </trkpt>
      <trkpt lat="45.78249" lon="-1.22754">
        <ele>57.309933</ele>
        <time>2018-01-14T08:49:12.947Z</time>
      </trkpt>
      <trkpt lat="45.78231" lon="-1.22756">
        <ele>57.58963</ele>
        <time>2018-01-14T08:49:18.745Z</time>
      </trkpt>
      <trkpt lat="45.78217" lon="-1.22776">
        <ele>57.386719</ele>
        <time>2018-01-14T08:49:25.758Z</time>
      </trkpt>
      <trkpt lat="45.78191" lon="-1.22788">
        <ele>56.920563</ele>
        <time>2018-01-14T08:49:34.648Z</time>
      </trkpt>
      <trkpt lat="45.78169" lon="-1.22787">
        <ele>55.63966</ele>
        <time>2018-01-14T08:49:39.705Z</time>
      </trkpt>
      <trkpt lat="45.7815" lon="-1.22791">
        <ele>55.284008</ele>
        <time>2018-01-14T08:49:45.701Z</time>
      </trkpt>
      <trkpt lat="45.78133" lon="-1.22808">
        <ele>54.923431</ele>
        <time>2018-01-14T08:49:51.693Z</time>
      </trkpt>
      <trkpt lat="45.78115" lon="-1.22814">
        <ele>54.689789</ele>
        <time>2018-01-14T08:49:57.690Z</time>
      </trkpt>
      <trkpt lat="45.78097" lon="-1.22813">
        <ele>54.649178</ele>
        <time>2018-01-14T08:50:03.772Z</time>
      </trkpt>
      <trkpt lat="45.7808" lon="-1.22798">
        <ele>54.499271</ele>
        <time>2018-01-14T08:50:10.679Z</time>
      </trkpt>
      <trkpt lat="45.78061" lon="-1.22781">
        <ele>54.521214</ele>
        <time>2018-01-14T08:50:17.657Z</time>
      </trkpt>
      <trkpt lat="45.78042" lon="-1.22787">
        <ele>53.555939</ele>
        <time>2018-01-14T08:50:26.659Z</time>
      </trkpt>
      <trkpt lat="45.78018" lon="-1.22788">
        <ele>53.413578</ele>
        <time>2018-01-14T08:50:33.930Z</time>
      </trkpt>
      <trkpt lat="45.77987" lon="-1.22787">
        <ele>52.643623</ele>
        <time>2018-01-14T08:50:40.940Z</time>
      </trkpt>
      <trkpt lat="45.77966" lon="-1.22786">
        <ele>52.551563</ele>
        <time>2018-01-14T08:50:46.651Z</time>
      </trkpt>
      <trkpt lat="45.77946" lon="-1.22786">
        <ele>52.303043</ele>
        <time>2018-01-14T08:50:52.646Z</time>
      </trkpt>
      <trkpt lat="45.7793" lon="-1.22791">
        <ele>51.964336</ele>
        <time>2018-01-14T08:50:58.645Z</time>
      </trkpt>
      <trkpt lat="45.77913" lon="-1.22809">
        <ele>51.509018</ele>
        <time>2018-01-14T08:51:08.672Z</time>
      </trkpt>
      <trkpt lat="45.77885" lon="-1.22793">
        <ele>51.805653</ele>
        <time>2018-01-14T08:51:16.656Z</time>
      </trkpt>
      <trkpt lat="45.77865" lon="-1.22796">
        <ele>51.713825</ele>
        <time>2018-01-14T08:51:23.751Z</time>
      </trkpt>
      <trkpt lat="45.77846" lon="-1.22791">
        <ele>51.651482</ele>
        <time>2018-01-14T08:51:31.673Z</time>
      </trkpt>
      <trkpt lat="45.77833" lon="-1.22772">
        <ele>51.686237</ele>
        <time>2018-01-14T08:51:38.646Z</time>
      </trkpt>
      <trkpt lat="45.77816" lon="-1.2276">
        <ele>51.12323</ele>
        <time>2018-01-14T08:51:45.682Z</time>
      </trkpt>
      <trkpt lat="45.77796" lon="-1.22758">
        <ele>50.93515</ele>
        <time>2018-01-14T08:51:52.646Z</time>
      </trkpt>
      <trkpt lat="45.77782" lon="-1.22735">
        <ele>50.768242</ele>
        <time>2018-01-14T08:52:00.688Z</time>
      </trkpt>
      <trkpt lat="45.77777" lon="-1.22716">
        <ele>50.577057</ele>
        <time>2018-01-14T08:52:06.644Z</time>
      </trkpt>
      <trkpt lat="45.7778" lon="-1.22684">
        <ele>50.838448</ele>
        <time>2018-01-14T08:52:12.721Z</time>
      </trkpt>
      <trkpt lat="45.77777" lon="-1.22651">
        <ele>51.23576</ele>
        <time>2018-01-14T08:52:18.647Z</time>
      </trkpt>
      <trkpt lat="45.77772" lon="-1.22624">
        <ele>52.740467</ele>
        <time>2018-01-14T08:52:24.665Z</time>
      </trkpt>
      <trkpt lat="45.77777" lon="-1.22594">
        <ele>52.839931</ele>
        <time>2018-01-14T08:52:30.797Z</time>
      </trkpt>
      <trkpt lat="45.77785" lon="-1.22563">
        <ele>53.505711</ele>
        <time>2018-01-14T08:52:36.643Z</time>
      </trkpt>
      <trkpt lat="45.77784" lon="-1.22531">
        <ele>55.187096</ele>
        <time>2018-01-14T08:52:43.663Z</time>
      </trkpt>
      <trkpt lat="45.77766" lon="-1.2252">
        <ele>55.666527</ele>
        <time>2018-01-14T08:52:52.636Z</time>
      </trkpt>
      <trkpt lat="45.77747" lon="-1.22501">
        <ele>56.419094</ele>
        <time>2018-01-14T08:52:57.674Z</time>
      </trkpt>
      <trkpt lat="45.77728" lon="-1.22492">
        <ele>56.06908</ele>
        <time>2018-01-14T08:53:05.688Z</time>
      </trkpt>
      <trkpt lat="45.77719" lon="-1.22494">
        <ele>55.251698</ele>
        <time>2018-01-14T08:53:11.675Z</time>
      </trkpt>
      <trkpt lat="45.77712" lon="-1.22503">
        <ele>54.059341</ele>
        <time>2018-01-14T08:53:22.649Z</time>
      </trkpt>
      <trkpt lat="45.77711" lon="-1.22517">
        <ele>54.420811</ele>
        <time>2018-01-14T08:53:29.677Z</time>
      </trkpt>
      <trkpt lat="45.7771" lon="-1.22545">
        <ele>54.979416</ele>
        <time>2018-01-14T08:53:35.674Z</time>
      </trkpt>
      <trkpt lat="45.77705" lon="-1.22577">
        <ele>55.275387</ele>
        <time>2018-01-14T08:53:41.689Z</time>
      </trkpt>
      <trkpt lat="45.77698" lon="-1.22605">
        <ele>55.168179</ele>
        <time>2018-01-14T08:53:47.672Z</time>
      </trkpt>
      <trkpt lat="45.77691" lon="-1.22635">
        <ele>54.872017</ele>
        <time>2018-01-14T08:53:53.673Z</time>
      </trkpt>
      <trkpt lat="45.77689" lon="-1.22665">
        <ele>54.966702</ele>
        <time>2018-01-14T08:53:59.675Z</time>
      </trkpt>
      <trkpt lat="45.77691" lon="-1.22699">
        <ele>55.994343</ele>
        <time>2018-01-14T08:54:05.679Z</time>
      </trkpt>
      <trkpt lat="45.77695" lon="-1.22728">
        <ele>55.841351</ele>
        <time>2018-01-14T08:54:11.719Z</time>
      </trkpt>
      <trkpt lat="45.77696" lon="-1.2276">
        <ele>55.551037</ele>
        <time>2018-01-14T08:54:17.743Z</time>
      </trkpt>
      <trkpt lat="45.77699" lon="-1.22791">
        <ele>55.20784</ele>
        <time>2018-01-14T08:54:23.651Z</time>
      </trkpt>
      <trkpt lat="45.77692" lon="-1.22825">
        <ele>55.104923</ele>
        <time>2018-01-14T08:54:29.717Z</time>
      </trkpt>
      <trkpt lat="45.77686" lon="-1.22854">
        <ele>55.38805</ele>
        <time>2018-01-14T08:54:36.639Z</time>
      </trkpt>
      <trkpt lat="45.7768" lon="-1.22874">
        <ele>55.113667</ele>
        <time>2018-01-14T08:57:34.695Z</time>
      </trkpt>
      <trkpt lat="45.77674" lon="-1.22905">
        <ele>55.391987</ele>
        <time>2018-01-14T08:57:41.766Z</time>
      </trkpt>
      <trkpt lat="45.77673" lon="-1.22931">
        <ele>55.41893</ele>
        <time>2018-01-14T08:57:47.696Z</time>
      </trkpt>
      <trkpt lat="45.77666" lon="-1.22973">
        <ele>55.963692</ele>
        <time>2018-01-14T08:57:54.711Z</time>
      </trkpt>
      <trkpt lat="45.77659" lon="-1.23008">
        <ele>54.321781</ele>
        <time>2018-01-14T08:58:00.644Z</time>
      </trkpt>
      <trkpt lat="45.77659" lon="-1.23038">
        <ele>55.025948</ele>
        <time>2018-01-14T08:58:05.774Z</time>
      </trkpt>
      <trkpt lat="45.77651" lon="-1.23082">
        <ele>54.976223</ele>
        <time>2018-01-14T08:58:12.644Z</time>
      </trkpt>
      <trkpt lat="45.77639" lon="-1.23109">
        <ele>55.875374</ele>
        <time>2018-01-14T08:58:17.905Z</time>
      </trkpt>
      <trkpt lat="45.77621" lon="-1.23153">
        <ele>57.572617</ele>
        <time>2018-01-14T08:58:25.756Z</time>
      </trkpt>
      <trkpt lat="45.77609" lon="-1.23185">
        <ele>56.738174</ele>
        <time>2018-01-14T08:58:31.741Z</time>
      </trkpt>
      <trkpt lat="45.77591" lon="-1.23218">
        <ele>56.445332</ele>
        <time>2018-01-14T08:58:38.694Z</time>
      </trkpt>
      <trkpt lat="45.77579" lon="-1.23245">
        <ele>52.468342</ele>
        <time>2018-01-14T08:58:43.803Z</time>
      </trkpt>
      <trkpt lat="45.77562" lon="-1.23281">
        <ele>49.322788</ele>
        <time>2018-01-14T08:58:49.702Z</time>
      </trkpt>
      <trkpt lat="45.77549" lon="-1.23304">
        <ele>49.333389</ele>
        <time>2018-01-14T08:58:54.786Z</time>
      </trkpt>
      <trkpt lat="45.77544" lon="-1.23332">
        <ele>50.113777</ele>
        <time>2018-01-14T08:59:00.663Z</time>
      </trkpt>
      <trkpt lat="45.77534" lon="-1.23368">
        <ele>52.125584</ele>
        <time>2018-01-14T08:59:06.665Z</time>
      </trkpt>
      <trkpt lat="45.77526" lon="-1.23394">
        <ele>52.377686</ele>
        <time>2018-01-14T08:59:11.678Z</time>
      </trkpt>
      <trkpt lat="45.77511" lon="-1.23436">
        <ele>49.781006</ele>
        <time>2018-01-14T08:59:17.778Z</time>
      </trkpt>
      <trkpt lat="45.77502" lon="-1.2348">
        <ele>46.475811</ele>
        <time>2018-01-14T08:59:23.652Z</time>
      </trkpt>
      <trkpt lat="45.77498" lon="-1.23511">
        <ele>46.001514</ele>
        <time>2018-01-14T08:59:28.743Z</time>
      </trkpt>
      <trkpt lat="45.77488" lon="-1.23542">
        <ele>47.95879</ele>
        <time>2018-01-14T08:59:34.685Z</time>
      </trkpt>
      <trkpt lat="45.77476" lon="-1.23572">
        <ele>48.868004</ele>
        <time>2018-01-14T08:59:41.971Z</time>
      </trkpt>
      <trkpt lat="45.77464" lon="-1.23597">
        <ele>49.26638</ele>
        <time>2018-01-14T08:59:47.695Z</time>
      </trkpt>
      <trkpt lat="45.77454" lon="-1.23624">
        <ele>49.574589</ele>
        <time>2018-01-14T08:59:54.653Z</time>
      </trkpt>
      <trkpt lat="45.77441" lon="-1.23658">
        <ele>51.698154</ele>
        <time>2018-01-14T08:59:59.822Z</time>
      </trkpt>
      <trkpt lat="45.77428" lon="-1.23698">
        <ele>50.202301</ele>
        <time>2018-01-14T09:00:05.962Z</time>
      </trkpt>
      <trkpt lat="45.77408" lon="-1.23717">
        <ele>49.982731</ele>
        <time>2018-01-14T09:00:11.886Z</time>
      </trkpt>
      <trkpt lat="45.77387" lon="-1.2372">
        <ele>49.738708</ele>
        <time>2018-01-14T09:00:18.699Z</time>
      </trkpt>
      <trkpt lat="45.77368" lon="-1.23723">
        <ele>49.023418</ele>
        <time>2018-01-14T09:00:24.652Z</time>
      </trkpt>
      <trkpt lat="45.77343" lon="-1.2372">
        <ele>48.978996</ele>
        <time>2018-01-14T09:00:32.650Z</time>
      </trkpt>
      <trkpt lat="45.77321" lon="-1.23712">
        <ele>50.117504</ele>
        <time>2018-01-14T09:00:37.823Z</time>
      </trkpt>
      <trkpt lat="45.77296" lon="-1.2371">
        <ele>50.474895</ele>
        <time>2018-01-14T09:00:43.715Z</time>
      </trkpt>
      <trkpt lat="45.77275" lon="-1.23706">
        <ele>51.194389</ele>
        <time>2018-01-14T09:00:49.846Z</time>
      </trkpt>
      <trkpt lat="45.77258" lon="-1.23692">
        <ele>51.04092</ele>
        <time>2018-01-14T09:00:55.968Z</time>
      </trkpt>
      <trkpt lat="45.77239" lon="-1.23696">
        <ele>50.511539</ele>
        <time>2018-01-14T09:01:01.821Z</time>
      </trkpt>
      <trkpt lat="45.77211" lon="-1.23679">
        <ele>51.0411</ele>
        <time>2018-01-14T09:01:09.665Z</time>
      </trkpt>
      <trkpt lat="45.77189" lon="-1.23688">
        <ele>50.975563</ele>
        <time>2018-01-14T09:01:17.685Z</time>
      </trkpt>
      <trkpt lat="45.77165" lon="-1.23689">
        <ele>51.336395</ele>
        <time>2018-01-14T09:01:24.647Z</time>
      </trkpt>
      <trkpt lat="45.77137" lon="-1.23683">
        <ele>50.955227</ele>
        <time>2018-01-14T09:01:30.660Z</time>
      </trkpt>
      <trkpt lat="45.77104" lon="-1.23675">
        <ele>51.211895</ele>
        <time>2018-01-14T09:01:38.903Z</time>
      </trkpt>
      <trkpt lat="45.77074" lon="-1.23671">
        <ele>51.795395</ele>
        <time>2018-01-14T09:01:45.888Z</time>
      </trkpt>
      <trkpt lat="45.77043" lon="-1.23676">
        <ele>52.415165</ele>
        <time>2018-01-14T09:01:53.930Z</time>
      </trkpt>
      <trkpt lat="45.77012" lon="-1.23674">
        <ele>52.310627</ele>
        <time>2018-01-14T09:02:02.659Z</time>
      </trkpt>
      <trkpt lat="45.76986" lon="-1.23664">
        <ele>53.470623</ele>
        <time>2018-01-14T09:02:07.789Z</time>
      </trkpt>
      <trkpt lat="45.76967" lon="-1.23655">
        <ele>53.843212</ele>
        <time>2018-01-14T09:02:12.817Z</time>
      </trkpt>
      <trkpt lat="45.76943" lon="-1.23657">
        <ele>53.767204</ele>
        <time>2018-01-14T09:02:19.778Z</time>
      </trkpt>
      <trkpt lat="45.76908" lon="-1.23646">
        <ele>52.866322</ele>
        <time>2018-01-14T09:02:28.008Z</time>
      </trkpt>
      <trkpt lat="45.76877" lon="-1.23651">
        <ele>52.048683</ele>
        <time>2018-01-14T09:02:35.843Z</time>
      </trkpt>
      <trkpt lat="45.76855" lon="-1.23645">
        <ele>51.062645</ele>
        <time>2018-01-14T09:02:41.661Z</time>
      </trkpt>
      <trkpt lat="45.76831" lon="-1.23644">
        <ele>51.085449</ele>
        <time>2018-01-14T09:02:50.047Z</time>
      </trkpt>
      <trkpt lat="45.76794" lon="-1.23638">
        <ele>53.744442</ele>
        <time>2018-01-14T09:02:57.932Z</time>
      </trkpt>
      <trkpt lat="45.76762" lon="-1.23632">
        <ele>53.30349</ele>
        <time>2018-01-14T09:03:04.642Z</time>
      </trkpt>
      <trkpt lat="45.76736" lon="-1.23619">
        <ele>53.092247</ele>
        <time>2018-01-14T09:03:12.002Z</time>
      </trkpt>
      <trkpt lat="45.76716" lon="-1.23612">
        <ele>52.389366</ele>
        <time>2018-01-14T09:03:21.787Z</time>
      </trkpt>
      <trkpt lat="45.76697" lon="-1.23601">
        <ele>51.842949</ele>
        <time>2018-01-14T09:03:30.647Z</time>
      </trkpt>
      <trkpt lat="45.76686" lon="-1.23606">
        <ele>51.762653</ele>
        <time>2018-01-14T09:03:35.847Z</time>
      </trkpt>
      <trkpt lat="45.76666" lon="-1.23604">
        <ele>51.703972</ele>
        <time>2018-01-14T09:03:41.754Z</time>
      </trkpt>
      <trkpt lat="45.76644" lon="-1.23613">
        <ele>51.551746</ele>
        <time>2018-01-14T09:03:48.653Z</time>
      </trkpt>
      <trkpt lat="45.76622" lon="-1.23619">
        <ele>51.196674</ele>
        <time>2018-01-14T09:03:54.689Z</time>
      </trkpt>
      <trkpt lat="45.76601" lon="-1.23623">
        <ele>50.718632</ele>
        <time>2018-01-14T09:04:01.856Z</time>
      </trkpt>
      <trkpt lat="45.7657" lon="-1.23624">
        <ele>50.741222</ele>
        <time>2018-01-14T09:04:09.737Z</time>
      </trkpt>
      <trkpt lat="45.76548" lon="-1.23634">
        <ele>50.54211</ele>
        <time>2018-01-14T09:04:17.809Z</time>
      </trkpt>
      <trkpt lat="45.76529" lon="-1.23643">
        <ele>50.839096</ele>
        <time>2018-01-14T09:04:24.662Z</time>
      </trkpt>
      <trkpt lat="45.7651" lon="-1.23655">
        <ele>51.317223</ele>
        <time>2018-01-14T09:04:31.748Z</time>
      </trkpt>
      <trkpt lat="45.76489" lon="-1.23649">
        <ele>51.906033</ele>
        <time>2018-01-14T09:04:38.657Z</time>
      </trkpt>
      <trkpt lat="45.76472" lon="-1.23641">
        <ele>52.460838</ele>
        <time>2018-01-14T09:04:47.685Z</time>
      </trkpt>
      <trkpt lat="45.76455" lon="-1.23658">
        <ele>53.169792</ele>
        <time>2018-01-14T09:04:55.715Z</time>
      </trkpt>
      <trkpt lat="45.76436" lon="-1.23663">
        <ele>52.746746</ele>
        <time>2018-01-14T09:05:02.683Z</time>
      </trkpt>
      <trkpt lat="45.76416" lon="-1.23678">
        <ele>52.869244</ele>
        <time>2018-01-14T09:05:08.660Z</time>
      </trkpt>
      <trkpt lat="45.76389" lon="-1.23681">
        <ele>52.589985</ele>
        <time>2018-01-14T09:05:14.648Z</time>
      </trkpt>
      <trkpt lat="45.76364" lon="-1.23689">
        <ele>52.373116</ele>
        <time>2018-01-14T09:05:20.941Z</time>
      </trkpt>
      <trkpt lat="45.7634" lon="-1.23687">
        <ele>52.236206</ele>
        <time>2018-01-14T09:05:28.660Z</time>
      </trkpt>
      <trkpt lat="45.76322" lon="-1.23677">
        <ele>52.531052</ele>
        <time>2018-01-14T09:05:35.716Z</time>
      </trkpt>
      <trkpt lat="45.7631" lon="-1.23654">
        <ele>52.557255</ele>
        <time>2018-01-14T09:05:42.664Z</time>
      </trkpt>
      <trkpt lat="45.763" lon="-1.23631">
        <ele>52.441467</ele>
        <time>2018-01-14T09:05:48.719Z</time>
      </trkpt>
      <trkpt lat="45.76287" lon="-1.23591">
        <ele>50.551601</ele>
        <time>2018-01-14T09:05:57.673Z</time>
      </trkpt>
      <trkpt lat="45.76281" lon="-1.23577">
        <ele>51.061749</ele>
        <time>2018-01-14T09:07:15.692Z</time>
      </trkpt>
      <trkpt lat="45.7627" lon="-1.2355">
        <ele>51.128838</ele>
        <time>2018-01-14T09:07:23.866Z</time>
      </trkpt>
      <trkpt lat="45.76263" lon="-1.23524">
        <ele>51.236065</ele>
        <time>2018-01-14T09:07:30.670Z</time>
      </trkpt>
      <trkpt lat="45.76255" lon="-1.23492">
        <ele>51.43047</ele>
        <time>2018-01-14T09:07:37.694Z</time>
      </trkpt>
      <trkpt lat="45.76245" lon="-1.23467">
        <ele>51.578526</ele>
        <time>2018-01-14T09:07:43.889Z</time>
      </trkpt>
      <trkpt lat="45.76234" lon="-1.23444">
        <ele>51.845581</ele>
        <time>2018-01-14T09:07:49.809Z</time>
      </trkpt>
      <trkpt lat="45.76228" lon="-1.23411">
        <ele>51.723495</ele>
        <time>2018-01-14T09:07:55.880Z</time>
      </trkpt>
      <trkpt lat="45.76234" lon="-1.23383">
        <ele>52.204796</ele>
        <time>2018-01-14T09:08:01.875Z</time>
      </trkpt>
      <trkpt lat="45.76234" lon="-1.23354">
        <ele>52.420132</ele>
        <time>2018-01-14T09:08:07.734Z</time>
      </trkpt>
      <trkpt lat="45.76229" lon="-1.23328">
        <ele>52.580757</ele>
        <time>2018-01-14T09:08:14.823Z</time>
      </trkpt>
      <trkpt lat="45.76223" lon="-1.23294">
        <ele>52.757915</ele>
        <time>2018-01-14T09:08:20.660Z</time>
      </trkpt>
      <trkpt lat="45.76221" lon="-1.23264">
        <ele>52.830925</ele>
        <time>2018-01-14T09:08:28.680Z</time>
      </trkpt>
      <trkpt lat="45.76213" lon="-1.23237">
        <ele>53.590969</ele>
        <time>2018-01-14T09:08:37.962Z</time>
      </trkpt>
      <trkpt lat="45.76201" lon="-1.23211">
        <ele>54.669506</ele>
        <time>2018-01-14T09:08:45.654Z</time>
      </trkpt>
      <trkpt lat="45.76186" lon="-1.2319">
        <ele>55.447563</ele>
        <time>2018-01-14T09:08:51.668Z</time>
      </trkpt>
      <trkpt lat="45.76177" lon="-1.23168">
        <ele>56.233871</ele>
        <time>2018-01-14T09:08:58.674Z</time>
      </trkpt>
      <trkpt lat="45.76175" lon="-1.23138">
        <ele>57.320152</ele>
        <time>2018-01-14T09:09:05.687Z</time>
      </trkpt>
      <trkpt lat="45.76172" lon="-1.23106">
        <ele>58.970196</ele>
        <time>2018-01-14T09:09:12.688Z</time>
      </trkpt>
      <trkpt lat="45.76183" lon="-1.23079">
        <ele>58.929249</ele>
        <time>2018-01-14T09:09:19.855Z</time>
      </trkpt>
      <trkpt lat="45.76185" lon="-1.23033">
        <ele>58.065956</ele>
        <time>2018-01-14T09:09:28.719Z</time>
      </trkpt>
      <trkpt lat="45.762" lon="-1.22991">
        <ele>54.094261</ele>
        <time>2018-01-14T09:09:34.677Z</time>
      </trkpt>
      <trkpt lat="45.76195" lon="-1.22962">
        <ele>54.336128</ele>
        <time>2018-01-14T09:09:40.800Z</time>
      </trkpt>
      <trkpt lat="45.76174" lon="-1.22961">
        <ele>54.106647</ele>
        <time>2018-01-14T09:09:46.767Z</time>
      </trkpt>
      <trkpt lat="45.7615" lon="-1.22955">
        <ele>51.429413</ele>
        <time>2018-01-14T09:09:52.655Z</time>
      </trkpt>
      <trkpt lat="45.7613" lon="-1.22948">
        <ele>50.072292</ele>
        <time>2018-01-14T09:09:57.951Z</time>
      </trkpt>
      <trkpt lat="45.76096" lon="-1.22946">
        <ele>50.766045</ele>
        <time>2018-01-14T09:10:04.670Z</time>
      </trkpt>
      <trkpt lat="45.76081" lon="-1.22925">
        <ele>52.10387</ele>
        <time>2018-01-14T09:10:09.901Z</time>
      </trkpt>
      <trkpt lat="45.76059" lon="-1.22909">
        <ele>51.390003</ele>
        <time>2018-01-14T09:10:15.842Z</time>
      </trkpt>
      <trkpt lat="45.76038" lon="-1.22906">
        <ele>51.056797</ele>
        <time>2018-01-14T09:10:21.744Z</time>
      </trkpt>
      <trkpt lat="45.76012" lon="-1.22903">
        <ele>49.832893</ele>
        <time>2018-01-14T09:10:28.189Z</time>
      </trkpt>
      <trkpt lat="45.75977" lon="-1.22895">
        <ele>50.727863</ele>
        <time>2018-01-14T09:10:35.953Z</time>
      </trkpt>
      <trkpt lat="45.7596" lon="-1.22881">
        <ele>50.551548</ele>
        <time>2018-01-14T09:10:43.839Z</time>
      </trkpt>
      <trkpt lat="45.75956" lon="-1.22853">
        <ele>49.948925</ele>
        <time>2018-01-14T09:10:51.876Z</time>
      </trkpt>
      <trkpt lat="45.75947" lon="-1.22824">
        <ele>50.181229</ele>
        <time>2018-01-14T09:11:01.726Z</time>
      </trkpt>
      <trkpt lat="45.75938" lon="-1.22814">
        <ele>50.454994</ele>
        <time>2018-01-14T09:11:06.825Z</time>
      </trkpt>
      <trkpt lat="45.75932" lon="-1.22804">
        <ele>50.386448</ele>
        <time>2018-01-14T09:11:12.688Z</time>
      </trkpt>
      <trkpt lat="45.7593" lon="-1.22789">
        <ele>50.199017</ele>
        <time>2018-01-14T09:11:17.941Z</time>
      </trkpt>
      <trkpt lat="45.75934" lon="-1.22761">
        <ele>49.386963</ele>
        <time>2018-01-14T09:11:23.947Z</time>
      </trkpt>
      <trkpt lat="45.75938" lon="-1.2273">
        <ele>48.70224</ele>
        <time>2018-01-14T09:11:31.784Z</time>
      </trkpt>
      <trkpt lat="45.75943" lon="-1.22694">
        <ele>48.639179</ele>
        <time>2018-01-14T09:11:38.674Z</time>
      </trkpt>
      <trkpt lat="45.75933" lon="-1.22665">
        <ele>49.06712</ele>
        <time>2018-01-14T09:11:46.094Z</time>
      </trkpt>
      <trkpt lat="45.75912" lon="-1.22655">
        <ele>49.961418</ele>
        <time>2018-01-14T09:11:54.010Z</time>
      </trkpt>
      <trkpt lat="45.75897" lon="-1.22661">
        <ele>51.107002</ele>
        <time>2018-01-14T09:12:08.683Z</time>
      </trkpt>
      <trkpt lat="45.75885" lon="-1.22648">
        <ele>52.936749</ele>
        <time>2018-01-14T09:12:21.727Z</time>
      </trkpt>
      <trkpt lat="45.75884" lon="-1.22621">
        <ele>53.803314</ele>
        <time>2018-01-14T09:12:28.670Z</time>
      </trkpt>
      <trkpt lat="45.7588" lon="-1.22589">
        <ele>55.623215</ele>
        <time>2018-01-14T09:12:35.700Z</time>
      </trkpt>
      <trkpt lat="45.75897" lon="-1.22573">
        <ele>55.792656</ele>
        <time>2018-01-14T09:12:41.704Z</time>
      </trkpt>
      <trkpt lat="45.75913" lon="-1.22555">
        <ele>56.162403</ele>
        <time>2018-01-14T09:12:48.667Z</time>
      </trkpt>
      <trkpt lat="45.75919" lon="-1.22523">
        <ele>56.370728</ele>
        <time>2018-01-14T09:12:55.645Z</time>
      </trkpt>
      <trkpt lat="45.75909" lon="-1.22497">
        <ele>56.464725</ele>
        <time>2018-01-14T09:13:03.643Z</time>
      </trkpt>
      <trkpt lat="45.75888" lon="-1.22486">
        <ele>56.845734</ele>
        <time>2018-01-14T09:13:11.636Z</time>
      </trkpt>
      <trkpt lat="45.7587" lon="-1.22474">
        <ele>57.340515</ele>
        <time>2018-01-14T09:13:18.702Z</time>
      </trkpt>
      <trkpt lat="45.75852" lon="-1.22462">
        <ele>58.023891</ele>
        <time>2018-01-14T09:13:24.690Z</time>
      </trkpt>
      <trkpt lat="45.75841" lon="-1.22433">
        <ele>58.065582</ele>
        <time>2018-01-14T09:13:30.674Z</time>
      </trkpt>
      <trkpt lat="45.7583" lon="-1.22401">
        <ele>58.539818</ele>
        <time>2018-01-14T09:13:36.666Z</time>
      </trkpt>
      <trkpt lat="45.75824" lon="-1.22357">
        <ele>56.639385</ele>
        <time>2018-01-14T09:13:42.670Z</time>
      </trkpt>
      <trkpt lat="45.75809" lon="-1.2232">
        <ele>57.614723</ele>
        <time>2018-01-14T09:13:49.667Z</time>
      </trkpt>
      <trkpt lat="45.75798" lon="-1.22293">
        <ele>58.527973</ele>
        <time>2018-01-14T09:13:55.638Z</time>
      </trkpt>
      <trkpt lat="45.75784" lon="-1.22279">
        <ele>57.748577</ele>
        <time>2018-01-14T09:14:06.675Z</time>
      </trkpt>
      <trkpt lat="45.75776" lon="-1.22285">
        <ele>57.666706</ele>
        <time>2018-01-14T09:14:12.696Z</time>
      </trkpt>
      <trkpt lat="45.75767" lon="-1.2229">
        <ele>57.594296</ele>
        <time>2018-01-14T09:14:18.663Z</time>
      </trkpt>
      <trkpt lat="45.75758" lon="-1.22293">
        <ele>58.277142</ele>
        <time>2018-01-14T09:14:26.676Z</time>
      </trkpt>
      <trkpt lat="45.75749" lon="-1.22295">
        <ele>58.979843</ele>
        <time>2018-01-14T09:14:36.662Z</time>
      </trkpt>
      <trkpt lat="45.75739" lon="-1.22299">
        <ele>60.261486</ele>
        <time>2018-01-14T09:14:45.669Z</time>
      </trkpt>
      <trkpt lat="45.7573" lon="-1.22299">
        <ele>61.235607</ele>
        <time>2018-01-14T09:14:52.670Z</time>
      </trkpt>
      <trkpt lat="45.75708" lon="-1.22301">
        <ele>63.712627</ele>
        <time>2018-01-14T09:15:03.665Z</time>
      </trkpt>
      <trkpt lat="45.75697" lon="-1.2228">
        <ele>65.254211</ele>
        <time>2018-01-14T09:15:14.666Z</time>
      </trkpt>
      <trkpt lat="45.75691" lon="-1.22266">
        <ele>66.385933</ele>
        <time>2018-01-14T09:15:21.669Z</time>
      </trkpt>
      <trkpt lat="45.75682" lon="-1.22239">
        <ele>67.759605</ele>
        <time>2018-01-14T09:15:29.645Z</time>
      </trkpt>
      <trkpt lat="45.75686" lon="-1.22214">
        <ele>68.682724</ele>
        <time>2018-01-14T09:15:36.640Z</time>
      </trkpt>
      <trkpt lat="45.75686" lon="-1.22197">
        <ele>69.198547</ele>
        <time>2018-01-14T09:15:41.675Z</time>
      </trkpt>
      <trkpt lat="45.75693" lon="-1.22171">
        <ele>69.592918</ele>
        <time>2018-01-14T09:15:47.646Z</time>
      </trkpt>
      <trkpt lat="45.75687" lon="-1.22157">
        <ele>70.203369</ele>
        <time>2018-01-14T09:15:53.678Z</time>
      </trkpt>
      <trkpt lat="45.75683" lon="-1.22127">
        <ele>70.949646</ele>
        <time>2018-01-14T09:16:00.641Z</time>
      </trkpt>
      <trkpt lat="45.75676" lon="-1.22116">
        <ele>71.394875</ele>
        <time>2018-01-14T09:16:06.658Z</time>
      </trkpt>
      <trkpt lat="45.75666" lon="-1.22093">
        <ele>71.442368</ele>
        <time>2018-01-14T09:16:13.632Z</time>
      </trkpt>
      <trkpt lat="45.75646" lon="-1.22093">
        <ele>71.678291</ele>
        <time>2018-01-14T09:16:19.643Z</time>
      </trkpt>
      <trkpt lat="45.75642" lon="-1.22067">
        <ele>71.632294</ele>
        <time>2018-01-14T09:16:26.661Z</time>
      </trkpt>
      <trkpt lat="45.75644" lon="-1.22035">
        <ele>71.825508</ele>
        <time>2018-01-14T09:16:32.719Z</time>
      </trkpt>
      <trkpt lat="45.75662" lon="-1.22018">
        <ele>72.359932</ele>
        <time>2018-01-14T09:16:39.635Z</time>
      </trkpt>
      <trkpt lat="45.7568" lon="-1.22003">
        <ele>72.733292</ele>
        <time>2018-01-14T09:16:47.657Z</time>
      </trkpt>
      <trkpt lat="45.75698" lon="-1.21999">
        <ele>70.428635</ele>
        <time>2018-01-14T09:17:29.678Z</time>
      </trkpt>
      <trkpt lat="45.75707" lon="-1.22007">
        <ele>75.823448</ele>
        <time>2018-01-14T09:22:09.795Z</time>
      </trkpt>
      <trkpt lat="45.75726" lon="-1.2202">
        <ele>75.90966</ele>
        <time>2018-01-14T09:22:16.816Z</time>
      </trkpt>
      <trkpt lat="45.75744" lon="-1.22036">
        <ele>75.204735</ele>
        <time>2018-01-14T09:22:23.694Z</time>
      </trkpt>
      <trkpt lat="45.75774" lon="-1.2205">
        <ele>67.253593</ele>
        <time>2018-01-14T09:22:29.677Z</time>
      </trkpt>
      <trkpt lat="45.75807" lon="-1.22061">
        <ele>63.548878</ele>
        <time>2018-01-14T09:22:36.690Z</time>
      </trkpt>
      <trkpt lat="45.75824" lon="-1.22034">
        <ele>61.406437</ele>
        <time>2018-01-14T09:22:42.735Z</time>
      </trkpt>
      <trkpt lat="45.75847" lon="-1.22008">
        <ele>59.924099</ele>
        <time>2018-01-14T09:22:49.794Z</time>
      </trkpt>
      <trkpt lat="45.75867" lon="-1.21992">
        <ele>60.057236</ele>
        <time>2018-01-14T09:22:56.698Z</time>
      </trkpt>
      <trkpt lat="45.75889" lon="-1.21988">
        <ele>60.091557</ele>
        <time>2018-01-14T09:23:03.830Z</time>
      </trkpt>
      <trkpt lat="45.75908" lon="-1.21986">
        <ele>60.048794</ele>
        <time>2018-01-14T09:23:10.685Z</time>
      </trkpt>
      <trkpt lat="45.75923" lon="-1.22">
        <ele>60.774067</ele>
        <time>2018-01-14T09:23:16.688Z</time>
      </trkpt>
      <trkpt lat="45.75937" lon="-1.22021">
        <ele>60.723553</ele>
        <time>2018-01-14T09:23:22.717Z</time>
      </trkpt>
      <trkpt lat="45.75942" lon="-1.22054">
        <ele>61.264282</ele>
        <time>2018-01-14T09:23:30.675Z</time>
      </trkpt>
      <trkpt lat="45.75951" lon="-1.22049">
        <ele>61.467705</ele>
        <time>2018-01-14T09:23:36.675Z</time>
      </trkpt>
      <trkpt lat="45.75958" lon="-1.22037">
        <ele>61.810234</ele>
        <time>2018-01-14T09:23:41.729Z</time>
      </trkpt>
      <trkpt lat="45.75969" lon="-1.22015">
        <ele>62.770832</ele>
        <time>2018-01-14T09:23:50.644Z</time>
      </trkpt>
      <trkpt lat="45.75976" lon="-1.21987">
        <ele>63.9361</ele>
        <time>2018-01-14T09:24:00.647Z</time>
      </trkpt>
      <trkpt lat="45.75986" lon="-1.21963">
        <ele>65.472809</ele>
        <time>2018-01-14T09:24:11.657Z</time>
      </trkpt>
      <trkpt lat="45.75994" lon="-1.21954">
        <ele>66.370476</ele>
        <time>2018-01-14T09:24:17.634Z</time>
      </trkpt>
      <trkpt lat="45.76001" lon="-1.21945">
        <ele>67.38166</ele>
        <time>2018-01-14T09:24:24.645Z</time>
      </trkpt>
      <trkpt lat="45.76009" lon="-1.21939">
        <ele>69.119415</ele>
        <time>2018-01-14T09:24:32.672Z</time>
      </trkpt>
      <trkpt lat="45.76002" lon="-1.21931">
        <ele>72.32309</ele>
        <time>2018-01-14T09:24:56.654Z</time>
      </trkpt>
      <trkpt lat="45.75992" lon="-1.21929">
        <ele>73.400322</ele>
        <time>2018-01-14T09:25:03.642Z</time>
      </trkpt>
      <trkpt lat="45.75996" lon="-1.21902">
        <ele>74.018646</ele>
        <time>2018-01-14T09:25:10.653Z</time>
      </trkpt>
      <trkpt lat="45.76003" lon="-1.21877">
        <ele>73.838921</ele>
        <time>2018-01-14T09:25:16.653Z</time>
      </trkpt>
      <trkpt lat="45.7602" lon="-1.21862">
        <ele>72.964745</ele>
        <time>2018-01-14T09:25:24.638Z</time>
      </trkpt>
      <trkpt lat="45.76031" lon="-1.2184">
        <ele>72.622688</ele>
        <time>2018-01-14T09:25:31.663Z</time>
      </trkpt>
      <trkpt lat="45.76029" lon="-1.21809">
        <ele>72.436913</ele>
        <time>2018-01-14T09:25:37.646Z</time>
      </trkpt>
      <trkpt lat="45.76027" lon="-1.21797">
        <ele>72.281448</ele>
        <time>2018-01-14T09:25:42.653Z</time>
      </trkpt>
      <trkpt lat="45.76016" lon="-1.21773">
        <ele>71.870872</ele>
        <time>2018-01-14T09:25:49.645Z</time>
      </trkpt>
      <trkpt lat="45.76025" lon="-1.2175">
        <ele>66.088203</ele>
        <time>2018-01-14T09:25:55.649Z</time>
      </trkpt>
      <trkpt lat="45.76042" lon="-1.21727">
        <ele>60.428627</ele>
        <time>2018-01-14T09:26:01.658Z</time>
      </trkpt>
      <trkpt lat="45.7606" lon="-1.21721">
        <ele>57.955929</ele>
        <time>2018-01-14T09:26:07.664Z</time>
      </trkpt>
      <trkpt lat="45.76081" lon="-1.21716">
        <ele>56.639118</ele>
        <time>2018-01-14T09:26:17.663Z</time>
      </trkpt>
      <trkpt lat="45.76101" lon="-1.21703">
        <ele>55.779953</ele>
        <time>2018-01-14T09:26:23.643Z</time>
      </trkpt>
      <trkpt lat="45.76112" lon="-1.21703">
        <ele>55.474796</ele>
        <time>2018-01-14T09:26:28.650Z</time>
      </trkpt>
      <trkpt lat="45.76133" lon="-1.21707">
        <ele>56.419262</ele>
        <time>2018-01-14T09:26:35.668Z</time>
      </trkpt>
      <trkpt lat="45.76142" lon="-1.21712">
        <ele>57.324844</ele>
        <time>2018-01-14T09:26:41.153Z</time>
      </trkpt>
      <trkpt lat="45.76162" lon="-1.2172">
        <ele>59.347363</ele>
        <time>2018-01-14T09:26:50.658Z</time>
      </trkpt>
      <trkpt lat="45.76182" lon="-1.21728">
        <ele>61.44381</ele>
        <time>2018-01-14T09:27:00.693Z</time>
      </trkpt>
      <trkpt lat="45.76214" lon="-1.21731">
        <ele>63.745434</ele>
        <time>2018-01-14T09:27:07.633Z</time>
      </trkpt>
      <trkpt lat="45.76236" lon="-1.21729">
        <ele>61.912914</ele>
        <time>2018-01-14T09:27:12.664Z</time>
      </trkpt>
      <trkpt lat="45.76257" lon="-1.21732">
        <ele>61.962872</ele>
        <time>2018-01-14T09:27:18.664Z</time>
      </trkpt>
      <trkpt lat="45.76286" lon="-1.21743">
        <ele>62.625584</ele>
        <time>2018-01-14T09:27:25.665Z</time>
      </trkpt>
      <trkpt lat="45.76306" lon="-1.21758">
        <ele>60.470257</ele>
        <time>2018-01-14T09:27:30.669Z</time>
      </trkpt>
      <trkpt lat="45.76342" lon="-1.21762">
        <ele>60.163155</ele>
        <time>2018-01-14T09:27:36.667Z</time>
      </trkpt>
      <trkpt lat="45.76374" lon="-1.2175">
        <ele>57.060955</ele>
        <time>2018-01-14T09:27:42.655Z</time>
      </trkpt>
      <trkpt lat="45.76403" lon="-1.21743">
        <ele>56.681801</ele>
        <time>2018-01-14T09:27:48.679Z</time>
      </trkpt>
      <trkpt lat="45.76435" lon="-1.21732">
        <ele>57.604156</ele>
        <time>2018-01-14T09:27:55.635Z</time>
      </trkpt>
      <trkpt lat="45.76456" lon="-1.21724">
        <ele>56.611473</ele>
        <time>2018-01-14T09:28:00.714Z</time>
      </trkpt>
      <trkpt lat="45.7648" lon="-1.21711">
        <ele>56.335918</ele>
        <time>2018-01-14T09:28:06.649Z</time>
      </trkpt>
      <trkpt lat="45.76499" lon="-1.21701">
        <ele>56.521984</ele>
        <time>2018-01-14T09:28:13.678Z</time>
      </trkpt>
      <trkpt lat="45.76526" lon="-1.21682">
        <ele>55.634914</ele>
        <time>2018-01-14T09:28:20.662Z</time>
      </trkpt>
      <trkpt lat="45.7656" lon="-1.21669">
        <ele>56.737083</ele>
        <time>2018-01-14T09:28:26.644Z</time>
      </trkpt>
      <trkpt lat="45.76594" lon="-1.2167">
        <ele>54.310066</ele>
        <time>2018-01-14T09:28:32.697Z</time>
      </trkpt>
      <trkpt lat="45.76618" lon="-1.21676">
        <ele>55.796383</ele>
        <time>2018-01-14T09:28:38.680Z</time>
      </trkpt>
      <trkpt lat="45.76646" lon="-1.21694">
        <ele>59.18317</ele>
        <time>2018-01-14T09:28:44.733Z</time>
      </trkpt>
      <trkpt lat="45.76677" lon="-1.21711">
        <ele>59.677956</ele>
        <time>2018-01-14T09:28:51.656Z</time>
      </trkpt>
      <trkpt lat="45.76699" lon="-1.21717">
        <ele>59.888294</ele>
        <time>2018-01-14T09:28:58.655Z</time>
      </trkpt>
      <trkpt lat="45.76716" lon="-1.21736">
        <ele>61.894665</ele>
        <time>2018-01-14T09:29:21.638Z</time>
      </trkpt>
      <trkpt lat="45.76726" lon="-1.21741">
        <ele>62.364952</ele>
        <time>2018-01-14T09:29:26.737Z</time>
      </trkpt>
      <trkpt lat="45.76735" lon="-1.21747">
        <ele>62.861259</ele>
        <time>2018-01-14T09:29:32.680Z</time>
      </trkpt>
      <trkpt lat="45.76744" lon="-1.21754">
        <ele>64.325356</ele>
        <time>2018-01-14T09:29:40.750Z</time>
      </trkpt>
      <trkpt lat="45.76752" lon="-1.2176">
        <ele>65.524857</ele>
        <time>2018-01-14T09:29:46.644Z</time>
      </trkpt>
      <trkpt lat="45.7676" lon="-1.21767">
        <ele>66.427307</ele>
        <time>2018-01-14T09:29:53.679Z</time>
      </trkpt>
      <trkpt lat="45.76768" lon="-1.21777">
        <ele>67.052864</ele>
        <time>2018-01-14T09:30:02.649Z</time>
      </trkpt>
      <trkpt lat="45.76779" lon="-1.21785">
        <ele>67.525604</ele>
        <time>2018-01-14T09:30:07.657Z</time>
      </trkpt>
      <trkpt lat="45.76802" lon="-1.21788">
        <ele>70.817413</ele>
        <time>2018-01-14T09:30:13.647Z</time>
      </trkpt>
      <trkpt lat="45.76812" lon="-1.21789">
        <ele>70.996025</ele>
        <time>2018-01-14T09:30:18.694Z</time>
      </trkpt>
      <trkpt lat="45.76832" lon="-1.21793">
        <ele>71.253464</ele>
        <time>2018-01-14T09:30:24.214Z</time>
      </trkpt>
      <trkpt lat="45.7685" lon="-1.21796">
        <ele>70.706551</ele>
        <time>2018-01-14T09:35:33.393Z</time>
      </trkpt>
      <trkpt lat="45.7687" lon="-1.21789">
        <ele>70.869026</ele>
        <time>2018-01-14T09:35:42.306Z</time>
      </trkpt>
      <trkpt lat="45.7689" lon="-1.2178">
        <ele>70.755577</ele>
        <time>2018-01-14T09:35:50.190Z</time>
      </trkpt>
      <trkpt lat="45.76907" lon="-1.21764">
        <ele>70.287018</ele>
        <time>2018-01-14T09:35:56.499Z</time>
      </trkpt>
      <trkpt lat="45.76926" lon="-1.21748">
        <ele>69.793427</ele>
        <time>2018-01-14T09:36:02.428Z</time>
      </trkpt>
      <trkpt lat="45.76945" lon="-1.21731">
        <ele>69.606293</ele>
        <time>2018-01-14T09:36:09.270Z</time>
      </trkpt>
      <trkpt lat="45.76965" lon="-1.21728">
        <ele>69.316284</ele>
        <time>2018-01-14T09:36:15.227Z</time>
      </trkpt>
      <trkpt lat="45.76976" lon="-1.21728">
        <ele>69.722694</ele>
        <time>2018-01-14T09:36:20.288Z</time>
      </trkpt>
      <trkpt lat="45.76997" lon="-1.21736">
        <ele>70.301682</ele>
        <time>2018-01-14T09:36:28.323Z</time>
      </trkpt>
      <trkpt lat="45.77012" lon="-1.21754">
        <ele>71.297699</ele>
        <time>2018-01-14T09:36:37.244Z</time>
      </trkpt>
      <trkpt lat="45.77031" lon="-1.21772">
        <ele>71.8619</ele>
        <time>2018-01-14T09:36:43.279Z</time>
      </trkpt>
      <trkpt lat="45.77051" lon="-1.21779">
        <ele>71.244492</ele>
        <time>2018-01-14T09:36:48.548Z</time>
      </trkpt>
      <trkpt lat="45.77085" lon="-1.21778">
        <ele>68.808601</ele>
        <time>2018-01-14T09:36:54.195Z</time>
      </trkpt>
      <trkpt lat="45.77121" lon="-1.21778">
        <ele>68.515518</ele>
        <time>2018-01-14T09:37:00.428Z</time>
      </trkpt>
      <trkpt lat="45.77149" lon="-1.21778">
        <ele>68.100235</ele>
        <time>2018-01-14T09:37:06.234Z</time>
      </trkpt>
      <trkpt lat="45.77171" lon="-1.21776">
        <ele>69.011391</ele>
        <time>2018-01-14T09:37:12.227Z</time>
      </trkpt>
      <trkpt lat="45.77194" lon="-1.2178">
        <ele>69.360672</ele>
        <time>2018-01-14T09:37:18.220Z</time>
      </trkpt>
      <trkpt lat="45.77216" lon="-1.21792">
        <ele>71.646889</ele>
        <time>2018-01-14T09:37:24.229Z</time>
      </trkpt>
      <trkpt lat="45.77235" lon="-1.21805">
        <ele>75.048637</ele>
        <time>2018-01-14T09:37:30.221Z</time>
      </trkpt>
      <trkpt lat="45.77256" lon="-1.21796">
        <ele>74.511192</ele>
        <time>2018-01-14T09:37:36.219Z</time>
      </trkpt>
      <trkpt lat="45.77274" lon="-1.21786">
        <ele>74.084702</ele>
        <time>2018-01-14T09:37:43.223Z</time>
      </trkpt>
      <trkpt lat="45.7729" lon="-1.21768">
        <ele>73.776093</ele>
        <time>2018-01-14T09:38:01.213Z</time>
      </trkpt>
      <trkpt lat="45.77298" lon="-1.21762">
        <ele>74.155952</ele>
        <time>2018-01-14T09:38:12.219Z</time>
      </trkpt>
      <trkpt lat="45.77307" lon="-1.21761">
        <ele>75.389893</ele>
        <time>2018-01-14T09:38:21.199Z</time>
      </trkpt>
      <trkpt lat="45.77315" lon="-1.21775">
        <ele>77.857162</ele>
        <time>2018-01-14T09:38:37.422Z</time>
      </trkpt>
      <trkpt lat="45.77327" lon="-1.21819">
        <ele>76.572807</ele>
        <time>2018-01-14T09:38:44.214Z</time>
      </trkpt>
      <trkpt lat="45.77344" lon="-1.21854">
        <ele>75.455368</ele>
        <time>2018-01-14T09:38:50.197Z</time>
      </trkpt>
      <trkpt lat="45.77366" lon="-1.21862">
        <ele>75.233261</ele>
        <time>2018-01-14T09:38:55.202Z</time>
      </trkpt>
      <trkpt lat="45.77374" lon="-1.21893">
        <ele>73.337418</ele>
        <time>2018-01-14T09:39:01.276Z</time>
      </trkpt>
      <trkpt lat="45.77374" lon="-1.21928">
        <ele>72.774963</ele>
        <time>2018-01-14T09:39:07.217Z</time>
      </trkpt>
      <trkpt lat="45.77376" lon="-1.2196">
        <ele>72.655777</ele>
        <time>2018-01-14T09:39:13.237Z</time>
      </trkpt>
      <trkpt lat="45.77378" lon="-1.21988">
        <ele>72.881409</ele>
        <time>2018-01-14T09:39:19.218Z</time>
      </trkpt>
      <trkpt lat="45.77378" lon="-1.2202">
        <ele>74.686417</ele>
        <time>2018-01-14T09:39:25.239Z</time>
      </trkpt>
      <trkpt lat="45.77379" lon="-1.22056">
        <ele>74.972923</ele>
        <time>2018-01-14T09:39:31.234Z</time>
      </trkpt>
      <trkpt lat="45.7738" lon="-1.22087">
        <ele>77.42646</ele>
        <time>2018-01-14T09:39:37.212Z</time>
      </trkpt>
      <trkpt lat="45.7738" lon="-1.22133">
        <ele>77.371208</ele>
        <time>2018-01-14T09:39:43.202Z</time>
      </trkpt>
      <trkpt lat="45.77382" lon="-1.22185">
        <ele>71.502548</ele>
        <time>2018-01-14T09:39:49.258Z</time>
      </trkpt>
      <trkpt lat="45.77383" lon="-1.22233">
        <ele>67.686691</ele>
        <time>2018-01-14T09:39:55.330Z</time>
      </trkpt>
      <trkpt lat="45.77389" lon="-1.22278">
        <ele>65.620209</ele>
        <time>2018-01-14T09:40:02.238Z</time>
      </trkpt>
      <trkpt lat="45.77389" lon="-1.22325">
        <ele>60.708126</ele>
        <time>2018-01-14T09:40:08.219Z</time>
      </trkpt>
      <trkpt lat="45.77389" lon="-1.22384">
        <ele>56.992157</ele>
        <time>2018-01-14T09:40:14.195Z</time>
      </trkpt>
      <trkpt lat="45.77389" lon="-1.22449">
        <ele>55.948696</ele>
        <time>2018-01-14T09:40:20.219Z</time>
      </trkpt>
      <trkpt lat="45.77387" lon="-1.2251">
        <ele>54.916546</ele>
        <time>2018-01-14T09:40:26.220Z</time>
      </trkpt>
      <trkpt lat="45.77388" lon="-1.22563">
        <ele>50.732841</ele>
        <time>2018-01-14T09:40:33.227Z</time>
      </trkpt>
      <trkpt lat="45.77389" lon="-1.22612">
        <ele>49.595673</ele>
        <time>2018-01-14T09:40:40.222Z</time>
      </trkpt>
      <trkpt lat="45.77392" lon="-1.2266">
        <ele>50.167858</ele>
        <time>2018-01-14T09:40:46.251Z</time>
      </trkpt>
      <trkpt lat="45.77394" lon="-1.22708">
        <ele>48.584133</ele>
        <time>2018-01-14T09:40:52.232Z</time>
      </trkpt>
      <trkpt lat="45.77396" lon="-1.22754">
        <ele>48.076954</ele>
        <time>2018-01-14T09:40:58.236Z</time>
      </trkpt>
      <trkpt lat="45.77398" lon="-1.22788">
        <ele>47.983238</ele>
        <time>2018-01-14T09:41:03.244Z</time>
      </trkpt>
      <trkpt lat="45.774" lon="-1.22837">
        <ele>50.427322</ele>
        <time>2018-01-14T09:41:11.231Z</time>
      </trkpt>
      <trkpt lat="45.77401" lon="-1.22884">
        <ele>51.119862</ele>
        <time>2018-01-14T09:41:19.203Z</time>
      </trkpt>
      <trkpt lat="45.77405" lon="-1.22912">
        <ele>51.875477</ele>
        <time>2018-01-14T09:41:44.209Z</time>
      </trkpt>
      <trkpt lat="45.77414" lon="-1.22909">
        <ele>54.301403</ele>
        <time>2018-01-14T09:42:33.233Z</time>
      </trkpt>
      <trkpt lat="45.77433" lon="-1.22904">
        <ele>55.159073</ele>
        <time>2018-01-14T09:42:42.228Z</time>
      </trkpt>
      <trkpt lat="45.77454" lon="-1.22901">
        <ele>55.290848</ele>
        <time>2018-01-14T09:42:49.221Z</time>
      </trkpt>
      <trkpt lat="45.77476" lon="-1.22897">
        <ele>55.343052</ele>
        <time>2018-01-14T09:42:55.231Z</time>
      </trkpt>
      <trkpt lat="45.77495" lon="-1.22892">
        <ele>55.473274</ele>
        <time>2018-01-14T09:43:01.221Z</time>
      </trkpt>
      <trkpt lat="45.77516" lon="-1.2289">
        <ele>55.611244</ele>
        <time>2018-01-14T09:43:07.537Z</time>
      </trkpt>
      <trkpt lat="45.77538" lon="-1.22887">
        <ele>55.61187</ele>
        <time>2018-01-14T09:43:14.252Z</time>
      </trkpt>
      <trkpt lat="45.77558" lon="-1.22883">
        <ele>55.297493</ele>
        <time>2018-01-14T09:43:20.239Z</time>
      </trkpt>
      <trkpt lat="45.77582" lon="-1.2288">
        <ele>55.507389</ele>
        <time>2018-01-14T09:43:26.246Z</time>
      </trkpt>
      <trkpt lat="45.77604" lon="-1.22873">
        <ele>56.065811</ele>
        <time>2018-01-14T09:43:32.200Z</time>
      </trkpt>
      <trkpt lat="45.77625" lon="-1.22872">
        <ele>51.375042</ele>
        <time>2018-01-14T09:43:37.291Z</time>
      </trkpt>
      <trkpt lat="45.77652" lon="-1.22869">
        <ele>50.342064</ele>
        <time>2018-01-14T09:43:43.292Z</time>
      </trkpt>
      <trkpt lat="45.77673" lon="-1.22864">
        <ele>50.016304</ele>
        <time>2018-01-14T09:43:49.328Z</time>
      </trkpt>
      <trkpt lat="45.77696" lon="-1.22863">
        <ele>49.055992</ele>
        <time>2018-01-14T09:43:55.216Z</time>
      </trkpt>
      <trkpt lat="45.7772" lon="-1.22861">
        <ele>49.782234</ele>
        <time>2018-01-14T09:44:01.207Z</time>
      </trkpt>
      <trkpt lat="45.7774" lon="-1.22857">
        <ele>51.01366</ele>
        <time>2018-01-14T09:44:07.216Z</time>
      </trkpt>
      <trkpt lat="45.77759" lon="-1.22854">
        <ele>51.66898</ele>
        <time>2018-01-14T09:44:15.239Z</time>
      </trkpt>
      <trkpt lat="45.77765" lon="-1.22881">
        <ele>52.362225</ele>
        <time>2018-01-14T09:44:23.264Z</time>
      </trkpt>
      <trkpt lat="45.77765" lon="-1.22913">
        <ele>52.940533</ele>
        <time>2018-01-14T09:44:29.216Z</time>
      </trkpt>
      <trkpt lat="45.77764" lon="-1.22948">
        <ele>53.580189</ele>
        <time>2018-01-14T09:44:35.214Z</time>
      </trkpt>
      <trkpt lat="45.77765" lon="-1.22981">
        <ele>57.559036</ele>
        <time>2018-01-14T09:44:41.219Z</time>
      </trkpt>
      <trkpt lat="45.77767" lon="-1.23012">
        <ele>57.550694</ele>
        <time>2018-01-14T09:44:47.234Z</time>
      </trkpt>
      <trkpt lat="45.77769" lon="-1.23043">
        <ele>55.443722</ele>
        <time>2018-01-14T09:44:53.299Z</time>
      </trkpt>
      <trkpt lat="45.77773" lon="-1.23075">
        <ele>52.914467</ele>
        <time>2018-01-14T09:44:59.229Z</time>
      </trkpt>
      <trkpt lat="45.77778" lon="-1.23108">
        <ele>52.326012</ele>
        <time>2018-01-14T09:45:04.291Z</time>
      </trkpt>
      <trkpt lat="45.77782" lon="-1.2314">
        <ele>53.550232</ele>
        <time>2018-01-14T09:45:10.219Z</time>
      </trkpt>
      <trkpt lat="45.77785" lon="-1.23173">
        <ele>53.145763</ele>
        <time>2018-01-14T09:45:16.301Z</time>
      </trkpt>
      <trkpt lat="45.7779" lon="-1.23207">
        <ele>54.260197</ele>
        <time>2018-01-14T09:45:22.199Z</time>
      </trkpt>
      <trkpt lat="45.77799" lon="-1.23232">
        <ele>54.078709</ele>
        <time>2018-01-14T09:45:28.227Z</time>
      </trkpt>
      <trkpt lat="45.77822" lon="-1.23237">
        <ele>53.803429</ele>
        <time>2018-01-14T09:45:36.195Z</time>
      </trkpt>
      <trkpt lat="45.77844" lon="-1.23242">
        <ele>53.603107</ele>
        <time>2018-01-14T09:45:42.197Z</time>
      </trkpt>
      <trkpt lat="45.77865" lon="-1.23247">
        <ele>53.858059</ele>
        <time>2018-01-14T09:45:48.199Z</time>
      </trkpt>
      <trkpt lat="45.77875" lon="-1.23253">
        <ele>53.660675</ele>
        <time>2018-01-14T09:45:53.263Z</time>
      </trkpt>
      <trkpt lat="45.77894" lon="-1.23263">
        <ele>53.522068</ele>
        <time>2018-01-14T09:45:59.279Z</time>
      </trkpt>
      <trkpt lat="45.77915" lon="-1.23268">
        <ele>53.653984</ele>
        <time>2018-01-14T09:46:05.214Z</time>
      </trkpt>
      <trkpt lat="45.77935" lon="-1.23271">
        <ele>54.450089</ele>
        <time>2018-01-14T09:46:12.240Z</time>
      </trkpt>
      <trkpt lat="45.77957" lon="-1.23267">
        <ele>53.750996</ele>
        <time>2018-01-14T09:46:18.297Z</time>
      </trkpt>
      <trkpt lat="45.77979" lon="-1.23268">
        <ele>53.072384</ele>
        <time>2018-01-14T09:46:23.384Z</time>
      </trkpt>
      <trkpt lat="45.77999" lon="-1.23268">
        <ele>50.624641</ele>
        <time>2018-01-14T09:46:29.224Z</time>
      </trkpt>
      <trkpt lat="45.7802" lon="-1.23264">
        <ele>50.020336</ele>
        <time>2018-01-14T09:46:34.410Z</time>
      </trkpt>
      <trkpt lat="45.78054" lon="-1.23256">
        <ele>50.4487</ele>
        <time>2018-01-14T09:46:42.403Z</time>
      </trkpt>
      <trkpt lat="45.78075" lon="-1.23252">
        <ele>51.081566</ele>
        <time>2018-01-14T09:46:48.276Z</time>
      </trkpt>
      <trkpt lat="45.78098" lon="-1.23246">
        <ele>51.08794</ele>
        <time>2018-01-14T09:46:54.262Z</time>
      </trkpt>
      <trkpt lat="45.78117" lon="-1.23242">
        <ele>51.246151</ele>
        <time>2018-01-14T09:46:59.465Z</time>
      </trkpt>
      <trkpt lat="45.78138" lon="-1.23234">
        <ele>52.262207</ele>
        <time>2018-01-14T09:47:05.255Z</time>
      </trkpt>
      <trkpt lat="45.78159" lon="-1.23227">
        <ele>52.406307</ele>
        <time>2018-01-14T09:47:11.229Z</time>
      </trkpt>
      <trkpt lat="45.78179" lon="-1.23219">
        <ele>52.4398</ele>
        <time>2018-01-14T09:47:17.264Z</time>
      </trkpt>
      <trkpt lat="45.78199" lon="-1.23208">
        <ele>52.536678</ele>
        <time>2018-01-14T09:47:23.239Z</time>
      </trkpt>
      <trkpt lat="45.78222" lon="-1.23196">
        <ele>52.559689</ele>
        <time>2018-01-14T09:47:29.287Z</time>
      </trkpt>
      <trkpt lat="45.78242" lon="-1.23184">
        <ele>52.317062</ele>
        <time>2018-01-14T09:47:35.217Z</time>
      </trkpt>
      <trkpt lat="45.78264" lon="-1.23172">
        <ele>53.075638</ele>
        <time>2018-01-14T09:47:41.228Z</time>
      </trkpt>
      <trkpt lat="45.78281" lon="-1.23158">
        <ele>53.162846</ele>
        <time>2018-01-14T09:47:47.410Z</time>
      </trkpt>
      <trkpt lat="45.78301" lon="-1.23145">
        <ele>53.950676</ele>
        <time>2018-01-14T09:47:53.248Z</time>
      </trkpt>
      <trkpt lat="45.78321" lon="-1.23133">
        <ele>53.97414</ele>
        <time>2018-01-14T09:47:59.452Z</time>
      </trkpt>
      <trkpt lat="45.78344" lon="-1.23125">
        <ele>54.858372</ele>
        <time>2018-01-14T09:48:05.214Z</time>
      </trkpt>
      <trkpt lat="45.78365" lon="-1.23116">
        <ele>54.78912</ele>
        <time>2018-01-14T09:48:11.228Z</time>
      </trkpt>
      <trkpt lat="45.78383" lon="-1.23103">
        <ele>54.581528</ele>
        <time>2018-01-14T09:48:17.211Z</time>
      </trkpt>
      <trkpt lat="45.78403" lon="-1.2309">
        <ele>54.438541</ele>
        <time>2018-01-14T09:48:23.241Z</time>
      </trkpt>
      <trkpt lat="45.78424" lon="-1.23078">
        <ele>53.89502</ele>
        <time>2018-01-14T09:48:29.217Z</time>
      </trkpt>
      <trkpt lat="45.78442" lon="-1.23066">
        <ele>53.553959</ele>
        <time>2018-01-14T09:48:35.211Z</time>
      </trkpt>
      <trkpt lat="45.7846" lon="-1.23052">
        <ele>51.618633</ele>
        <time>2018-01-14T09:48:41.199Z</time>
      </trkpt>
      <trkpt lat="45.78478" lon="-1.23037">
        <ele>51.267429</ele>
        <time>2018-01-14T09:48:46.212Z</time>
      </trkpt>
      <trkpt lat="45.78496" lon="-1.23026">
        <ele>51.646656</ele>
        <time>2018-01-14T09:48:53.226Z</time>
      </trkpt>
      <trkpt lat="45.78515" lon="-1.23019">
        <ele>52.039318</ele>
        <time>2018-01-14T09:48:59.214Z</time>
      </trkpt>
      <trkpt lat="45.78535" lon="-1.23011">
        <ele>52.191074</ele>
        <time>2018-01-14T09:49:05.255Z</time>
      </trkpt>
      <trkpt lat="45.78556" lon="-1.23005">
        <ele>52.310452</ele>
        <time>2018-01-14T09:49:11.224Z</time>
      </trkpt>
      <trkpt lat="45.7859" lon="-1.22996">
        <ele>53.259148</ele>
        <time>2018-01-14T09:49:19.216Z</time>
      </trkpt>
      <trkpt lat="45.78608" lon="-1.22989">
        <ele>53.453663</ele>
        <time>2018-01-14T09:49:25.238Z</time>
      </trkpt>
      <trkpt lat="45.78637" lon="-1.22966">
        <ele>56.049797</ele>
        <time>2018-01-14T09:49:33.193Z</time>
      </trkpt>
      <trkpt lat="45.7866" lon="-1.22945">
        <ele>54.662827</ele>
        <time>2018-01-14T09:49:39.224Z</time>
      </trkpt>
      <trkpt lat="45.78674" lon="-1.22908">
        <ele>54.03112</ele>
        <time>2018-01-14T09:49:47.214Z</time>
      </trkpt>
      <trkpt lat="45.78678" lon="-1.22881">
        <ele>54.207592</ele>
        <time>2018-01-14T09:49:55.215Z</time>
      </trkpt>
      <trkpt lat="45.78683" lon="-1.22852">
        <ele>54.399704</ele>
        <time>2018-01-14T09:50:02.211Z</time>
      </trkpt>
      <trkpt lat="45.78686" lon="-1.2282">
        <ele>54.047962</ele>
        <time>2018-01-14T09:50:11.228Z</time>
      </trkpt>
      <trkpt lat="45.78689" lon="-1.22793">
        <ele>53.66782</ele>
        <time>2018-01-14T09:50:19.220Z</time>
      </trkpt>
      <trkpt lat="45.78692" lon="-1.22763">
        <ele>54.482632</ele>
        <time>2018-01-14T09:50:27.271Z</time>
      </trkpt>
      <trkpt lat="45.78693" lon="-1.22732">
        <ele>55.974686</ele>
        <time>2018-01-14T09:50:38.194Z</time>
      </trkpt>
      <trkpt lat="45.78697" lon="-1.22706">
        <ele>56.519527</ele>
        <time>2018-01-14T09:50:46.242Z</time>
      </trkpt>
      <trkpt lat="45.787" lon="-1.22678">
        <ele>57.315166</ele>
        <time>2018-01-14T09:50:55.227Z</time>
      </trkpt>
      <trkpt lat="45.78702" lon="-1.22648">
        <ele>57.968803</ele>
        <time>2018-01-14T09:51:04.204Z</time>
      </trkpt>
      <trkpt lat="45.78702" lon="-1.22619">
        <ele>58.204449</ele>
        <time>2018-01-14T09:51:12.217Z</time>
      </trkpt>
      <trkpt lat="45.78706" lon="-1.22589">
        <ele>58.89893</ele>
        <time>2018-01-14T09:51:22.221Z</time>
      </trkpt>
      <trkpt lat="45.78713" lon="-1.22561">
        <ele>59.356571</ele>
        <time>2018-01-14T09:51:31.212Z</time>
      </trkpt>
      <trkpt lat="45.78716" lon="-1.22536">
        <ele>59.217373</ele>
        <time>2018-01-14T09:51:44.213Z</time>
      </trkpt>
      <trkpt lat="45.78713" lon="-1.22523">
        <ele>61.659931</ele>
        <time>2018-01-14T09:51:58.219Z</time>
      </trkpt>
      <trkpt lat="45.78704" lon="-1.22519">
        <ele>63.08556</ele>
        <time>2018-01-14T09:52:06.211Z</time>
      </trkpt>
      <trkpt lat="45.78695" lon="-1.22514">
        <ele>64.029266</ele>
        <time>2018-01-14T09:52:13.206Z</time>
      </trkpt>
      <trkpt lat="45.78685" lon="-1.22512">
        <ele>64.244766</ele>
        <time>2018-01-14T09:52:18.223Z</time>
      </trkpt>
      <trkpt lat="45.78669" lon="-1.22491">
        <ele>63.69997</ele>
        <time>2018-01-14T09:52:40.343Z</time>
      </trkpt>
      <trkpt lat="45.78679" lon="-1.22488">
        <ele>64.629349</ele>
        <time>2018-01-14T09:52:50.237Z</time>
      </trkpt>
      <trkpt lat="45.78701" lon="-1.22493">
        <ele>65.756538</ele>
        <time>2018-01-14T09:52:59.225Z</time>
      </trkpt>
      <trkpt lat="45.78721" lon="-1.22495">
        <ele>66.741211</ele>
        <time>2018-01-14T09:53:09.218Z</time>
      </trkpt>
      <trkpt lat="45.7873" lon="-1.22499">
        <ele>67.922951</ele>
        <time>2018-01-14T09:53:18.257Z</time>
      </trkpt>
      <trkpt lat="45.78752" lon="-1.22501">
        <ele>68.756645</ele>
        <time>2018-01-14T09:53:28.236Z</time>
      </trkpt>
      <trkpt lat="45.78771" lon="-1.22496">
        <ele>69.28688</ele>
        <time>2018-01-14T09:53:37.231Z</time>
      </trkpt>
      <trkpt lat="45.78781" lon="-1.22491">
        <ele>69.319748</ele>
        <time>2018-01-14T09:53:43.217Z</time>
      </trkpt>
      <trkpt lat="45.7879" lon="-1.22487">
        <ele>69.469254</ele>
        <time>2018-01-14T09:53:50.194Z</time>
      </trkpt>
      <trkpt lat="45.78799" lon="-1.22482">
        <ele>69.460434</ele>
        <time>2018-01-14T09:53:57.209Z</time>
      </trkpt>
      <trkpt lat="45.78807" lon="-1.22474">
        <ele>70.347649</ele>
        <time>2018-01-14T09:54:45.261Z</time>
      </trkpt>
      <trkpt lat="45.78805" lon="-1.22488">
        <ele>72.580254</ele>
        <time>2018-01-14T09:56:05.220Z</time>
      </trkpt>
      <trkpt lat="45.78797" lon="-1.22496">
        <ele>72.199028</ele>
        <time>2018-01-14T09:56:10.226Z</time>
      </trkpt>
      <trkpt lat="45.78799" lon="-1.22511">
        <ele>71.374702</ele>
        <time>2018-01-14T09:56:21.458Z</time>
      </trkpt>
      <trkpt lat="45.78812" lon="-1.22528">
        <ele>70.891281</ele>
        <time>2018-01-14T09:56:30.236Z</time>
      </trkpt>
      <trkpt lat="45.78805" lon="-1.22557">
        <ele>70.203285</ele>
        <time>2018-01-14T09:56:36.220Z</time>
      </trkpt>
      <trkpt lat="45.78799" lon="-1.22583">
        <ele>68.839378</ele>
        <time>2018-01-14T09:56:42.196Z</time>
      </trkpt>
      <trkpt lat="45.78793" lon="-1.22613">
        <ele>66.334885</ele>
        <time>2018-01-14T09:56:48.241Z</time>
      </trkpt>
      <trkpt lat="45.78787" lon="-1.22643">
        <ele>65.623466</ele>
        <time>2018-01-14T09:56:54.249Z</time>
      </trkpt>
      <trkpt lat="45.78766" lon="-1.22647">
        <ele>65.134315</ele>
        <time>2018-01-14T09:57:02.200Z</time>
      </trkpt>
      <trkpt lat="45.78747" lon="-1.22644">
        <ele>65.137497</ele>
        <time>2018-01-14T09:57:08.228Z</time>
      </trkpt>
      <trkpt lat="45.78726" lon="-1.2264">
        <ele>64.922073</ele>
        <time>2018-01-14T09:57:14.206Z</time>
      </trkpt>
      <trkpt lat="45.78703" lon="-1.22638">
        <ele>64.645691</ele>
        <time>2018-01-14T09:57:20.210Z</time>
      </trkpt>
      <trkpt lat="45.78683" lon="-1.22636">
        <ele>63.769035</ele>
        <time>2018-01-14T09:57:47.359Z</time>
      </trkpt>
      <trkpt lat="45.78661" lon="-1.22644">
        <ele>63.721897</ele>
        <time>2018-01-14T09:57:54.226Z</time>
      </trkpt>
      <trkpt lat="45.78639" lon="-1.22654">
        <ele>62.268524</ele>
        <time>2018-01-14T09:58:00.571Z</time>
      </trkpt>
      <trkpt lat="45.78607" lon="-1.22663">
        <ele>61.477856</ele>
        <time>2018-01-14T09:58:08.220Z</time>
      </trkpt>
      <trkpt lat="45.78587" lon="-1.22666">
        <ele>61.844612</ele>
        <time>2018-01-14T09:58:14.257Z</time>
      </trkpt>
      <trkpt lat="45.78566" lon="-1.22668">
        <ele>62.060295</ele>
        <time>2018-01-14T09:58:20.392Z</time>
      </trkpt>
      <trkpt lat="45.78535" lon="-1.22667">
        <ele>62.604591</ele>
        <time>2018-01-14T09:58:29.435Z</time>
      </trkpt>
      <trkpt lat="45.78496" lon="-1.22667">
        <ele>58.902603</ele>
        <time>2018-01-14T09:58:36.393Z</time>
      </trkpt>
      <trkpt lat="45.78484" lon="-1.22651">
        <ele>58.071266</ele>
        <time>2018-01-14T09:58:44.202Z</time>
      </trkpt>
      <trkpt lat="45.78478" lon="-1.22618">
        <ele>57.926434</ele>
        <time>2018-01-14T09:58:51.254Z</time>
      </trkpt>
      <trkpt lat="45.78479" lon="-1.2259">
        <ele>58.002636</ele>
        <time>2018-01-14T09:58:58.259Z</time>
      </trkpt>
      <trkpt lat="45.7848" lon="-1.22557">
        <ele>57.796555</ele>
        <time>2018-01-14T09:59:04.193Z</time>
      </trkpt>
      <trkpt lat="45.78479" lon="-1.22527">
        <ele>57.844311</ele>
        <time>2018-01-14T09:59:10.197Z</time>
      </trkpt>
      <trkpt lat="45.78472" lon="-1.22499">
        <ele>58.297829</ele>
        <time>2018-01-14T09:59:18.196Z</time>
      </trkpt>
      <trkpt lat="45.78488" lon="-1.22478">
        <ele>58.308899</ele>
        <time>2018-01-14T09:59:25.257Z</time>
      </trkpt>
      <trkpt lat="45.78504" lon="-1.22453">
        <ele>58.379166</ele>
        <time>2018-01-14T09:59:31.232Z</time>
      </trkpt>
      <trkpt lat="45.78516" lon="-1.22426">
        <ele>58.052315</ele>
        <time>2018-01-14T09:59:37.261Z</time>
      </trkpt>
      <trkpt lat="45.78528" lon="-1.22403">
        <ele>57.096867</ele>
        <time>2018-01-14T09:59:43.229Z</time>
      </trkpt>
      <trkpt lat="45.78541" lon="-1.22378">
        <ele>57.058189</ele>
        <time>2018-01-14T09:59:49.211Z</time>
      </trkpt>
      <trkpt lat="45.78557" lon="-1.22342">
        <ele>58.440441</ele>
        <time>2018-01-14T09:59:55.233Z</time>
      </trkpt>
      <trkpt lat="45.78569" lon="-1.22316">
        <ele>60.086014</ele>
        <time>2018-01-14T10:00:00.474Z</time>
      </trkpt>
      <trkpt lat="45.78584" lon="-1.22289">
        <ele>60.342453</ele>
        <time>2018-01-14T10:00:06.210Z</time>
      </trkpt>
      <trkpt lat="45.78587" lon="-1.22266">
        <ele>60.481384</ele>
        <time>2018-01-14T10:00:17.217Z</time>
      </trkpt>
      <trkpt lat="45.78593" lon="-1.22244">
        <ele>58.250195</ele>
        <time>2018-01-14T10:00:27.223Z</time>
      </trkpt>
      <trkpt lat="45.7861" lon="-1.2221">
        <ele>57.50518</ele>
        <time>2018-01-14T10:00:36.191Z</time>
      </trkpt>
      <trkpt lat="45.78608" lon="-1.22181">
        <ele>57.000618</ele>
        <time>2018-01-14T10:00:44.204Z</time>
      </trkpt>
      <trkpt lat="45.78619" lon="-1.22178">
        <ele>56.708508</ele>
        <time>2018-01-14T10:00:49.208Z</time>
      </trkpt>
      <trkpt lat="45.78638" lon="-1.22173">
        <ele>56.158691</ele>
        <time>2018-01-14T10:00:56.196Z</time>
      </trkpt>
      <trkpt lat="45.78653" lon="-1.22155">
        <ele>55.888847</ele>
        <time>2018-01-14T10:01:03.219Z</time>
      </trkpt>
      <trkpt lat="45.78665" lon="-1.22132">
        <ele>55.926838</ele>
        <time>2018-01-14T10:01:11.211Z</time>
      </trkpt>
      <trkpt lat="45.78677" lon="-1.22104">
        <ele>56.335735</ele>
        <time>2018-01-14T10:01:20.217Z</time>
      </trkpt>
      <trkpt lat="45.78676" lon="-1.22089">
        <ele>56.770771</ele>
        <time>2018-01-14T10:01:25.221Z</time>
      </trkpt>
      <trkpt lat="45.78675" lon="-1.22064">
        <ele>56.840958</ele>
        <time>2018-01-14T10:01:33.222Z</time>
      </trkpt>
      <trkpt lat="45.78691" lon="-1.22052">
        <ele>56.237801</ele>
        <time>2018-01-14T10:01:41.209Z</time>
      </trkpt>
      <trkpt lat="45.78707" lon="-1.2203">
        <ele>55.69273</ele>
        <time>2018-01-14T10:01:48.238Z</time>
      </trkpt>
      <trkpt lat="45.78717" lon="-1.22009">
        <ele>55.469582</ele>
        <time>2018-01-14T10:01:54.192Z</time>
      </trkpt>
      <trkpt lat="45.78728" lon="-1.21984">
        <ele>54.981239</ele>
        <time>2018-01-14T10:02:01.203Z</time>
      </trkpt>
      <trkpt lat="45.78736" lon="-1.21957">
        <ele>54.724903</ele>
        <time>2018-01-14T10:02:08.240Z</time>
      </trkpt>
      <trkpt lat="45.78746" lon="-1.21934">
        <ele>54.285336</ele>
        <time>2018-01-14T10:02:15.201Z</time>
      </trkpt>
      <trkpt lat="45.78756" lon="-1.21924">
        <ele>54.052589</ele>
        <time>2018-01-14T10:02:20.214Z</time>
      </trkpt>
      <trkpt lat="45.78777" lon="-1.21885">
        <ele>53.716946</ele>
        <time>2018-01-14T10:02:27.227Z</time>
      </trkpt>
      <trkpt lat="45.78793" lon="-1.21879">
        <ele>53.785259</ele>
        <time>2018-01-14T10:02:36.214Z</time>
      </trkpt>
      <trkpt lat="45.78798" lon="-1.21852">
        <ele>54.263298</ele>
        <time>2018-01-14T10:02:44.195Z</time>
      </trkpt>
      <trkpt lat="45.78805" lon="-1.21845">
        <ele>53.758183</ele>
        <time>2018-01-14T10:03:01.204Z</time>
      </trkpt>
      <trkpt lat="45.78819" lon="-1.21825">
        <ele>53.398369</ele>
        <time>2018-01-14T10:03:08.218Z</time>
      </trkpt>
      <trkpt lat="45.78833" lon="-1.21799">
        <ele>50.595539</ele>
        <time>2018-01-14T10:03:16.199Z</time>
      </trkpt>
      <trkpt lat="45.78851" lon="-1.21782">
        <ele>50.452267</ele>
        <time>2018-01-14T10:03:25.263Z</time>
      </trkpt>
      <trkpt lat="45.78862" lon="-1.21752">
        <ele>50.571255</ele>
        <time>2018-01-14T10:03:31.209Z</time>
      </trkpt>
      <trkpt lat="45.78876" lon="-1.2173">
        <ele>50.933685</ele>
        <time>2018-01-14T10:03:38.213Z</time>
      </trkpt>
      <trkpt lat="45.78889" lon="-1.21706">
        <ele>50.758881</ele>
        <time>2018-01-14T10:03:46.218Z</time>
      </trkpt>
      <trkpt lat="45.78898" lon="-1.21676">
        <ele>51.162079</ele>
        <time>2018-01-14T10:03:53.230Z</time>
      </trkpt>
      <trkpt lat="45.78907" lon="-1.21646">
        <ele>51.214317</ele>
        <time>2018-01-14T10:04:01.250Z</time>
      </trkpt>
      <trkpt lat="45.78912" lon="-1.21614">
        <ele>50.702255</ele>
        <time>2018-01-14T10:04:08.250Z</time>
      </trkpt>
      <trkpt lat="45.78908" lon="-1.21599">
        <ele>49.791542</ele>
        <time>2018-01-14T10:04:13.316Z</time>
      </trkpt>
      <trkpt lat="45.78916" lon="-1.21559">
        <ele>48.914349</ele>
        <time>2018-01-14T10:04:23.228Z</time>
      </trkpt>
      <trkpt lat="45.78927" lon="-1.21537">
        <ele>49.105022</ele>
        <time>2018-01-14T10:04:30.216Z</time>
      </trkpt>
      <trkpt lat="45.78927" lon="-1.21507">
        <ele>49.115952</ele>
        <time>2018-01-14T10:04:37.233Z</time>
      </trkpt>
      <trkpt lat="45.7893" lon="-1.21478">
        <ele>48.198612</ele>
        <time>2018-01-14T10:04:45.241Z</time>
      </trkpt>
      <trkpt lat="45.7892" lon="-1.21448">
        <ele>48.522171</ele>
        <time>2018-01-14T10:04:51.300Z</time>
      </trkpt>
      <trkpt lat="45.78922" lon="-1.21418">
        <ele>48.838882</ele>
        <time>2018-01-14T10:04:58.189Z</time>
      </trkpt>
      <trkpt lat="45.78939" lon="-1.21401">
        <ele>48.916489</ele>
        <time>2018-01-14T10:05:06.194Z</time>
      </trkpt>
      <trkpt lat="45.78955" lon="-1.21384">
        <ele>50.951221</ele>
        <time>2018-01-14T10:05:12.256Z</time>
      </trkpt>
      <trkpt lat="45.78966" lon="-1.21354">
        <ele>51.469856</ele>
        <time>2018-01-14T10:05:20.254Z</time>
      </trkpt>
      <trkpt lat="45.78982" lon="-1.21332">
        <ele>52.550175</ele>
        <time>2018-01-14T10:05:25.383Z</time>
      </trkpt>
      <trkpt lat="45.78998" lon="-1.21291">
        <ele>55.121342</ele>
        <time>2018-01-14T10:05:32.219Z</time>
      </trkpt>
      <trkpt lat="45.78989" lon="-1.21264">
        <ele>55.361954</ele>
        <time>2018-01-14T10:05:39.223Z</time>
      </trkpt>
      <trkpt lat="45.78985" lon="-1.21234">
        <ele>53.053493</ele>
        <time>2018-01-14T10:05:45.209Z</time>
      </trkpt>
      <trkpt lat="45.78978" lon="-1.21206">
        <ele>53.338818</ele>
        <time>2018-01-14T10:05:51.360Z</time>
      </trkpt>
      <trkpt lat="45.78991" lon="-1.21182">
        <ele>53.31081</ele>
        <time>2018-01-14T10:06:00.680Z</time>
      </trkpt>
      <trkpt lat="45.79001" lon="-1.2118">
        <ele>53.645359</ele>
        <time>2018-01-14T10:06:06.192Z</time>
      </trkpt>
      <trkpt lat="45.79017" lon="-1.21171">
        <ele>54.010059</ele>
        <time>2018-01-14T10:06:14.241Z</time>
      </trkpt>
      <trkpt lat="45.79028" lon="-1.21147">
        <ele>54.67334</ele>
        <time>2018-01-14T10:06:22.282Z</time>
      </trkpt>
      <trkpt lat="45.79022" lon="-1.21134">
        <ele>54.583244</ele>
        <time>2018-01-14T10:06:29.371Z</time>
      </trkpt>
      <trkpt lat="45.79018" lon="-1.21123">
        <ele>54.541084</ele>
        <time>2018-01-14T10:06:35.216Z</time>
      </trkpt>
      <trkpt lat="45.79025" lon="-1.21098">
        <ele>54.183231</ele>
        <time>2018-01-14T10:06:42.185Z</time>
      </trkpt>
      <trkpt lat="45.7903" lon="-1.21084">
        <ele>54.241592</ele>
        <time>2018-01-14T10:06:48.191Z</time>
      </trkpt>
      <trkpt lat="45.7903" lon="-1.21058">
        <ele>54.691254</ele>
        <time>2018-01-14T10:06:57.219Z</time>
      </trkpt>
      <trkpt lat="45.79032" lon="-1.21031">
        <ele>55.011887</ele>
        <time>2018-01-14T10:07:05.242Z</time>
      </trkpt>
      <trkpt lat="45.79039" lon="-1.21003">
        <ele>54.524158</ele>
        <time>2018-01-14T10:07:12.312Z</time>
      </trkpt>
      <trkpt lat="45.79048" lon="-1.20976">
        <ele>54.008274</ele>
        <time>2018-01-14T10:07:19.274Z</time>
      </trkpt>
      <trkpt lat="45.79056" lon="-1.20948">
        <ele>54.000031</ele>
        <time>2018-01-14T10:07:25.231Z</time>
      </trkpt>
      <trkpt lat="45.79058" lon="-1.20916">
        <ele>54.411644</ele>
        <time>2018-01-14T10:07:32.351Z</time>
      </trkpt>
      <trkpt lat="45.79035" lon="-1.20886">
        <ele>51.750637</ele>
        <time>2018-01-14T10:07:39.265Z</time>
      </trkpt>
      <trkpt lat="45.79034" lon="-1.20846">
        <ele>48.504837</ele>
        <time>2018-01-14T10:07:46.426Z</time>
      </trkpt>
      <trkpt lat="45.79046" lon="-1.20824">
        <ele>48.331944</ele>
        <time>2018-01-14T10:07:54.346Z</time>
      </trkpt>
      <trkpt lat="45.79062" lon="-1.20822">
        <ele>49.713799</ele>
        <time>2018-01-14T10:08:03.232Z</time>
      </trkpt>
      <trkpt lat="45.79067" lon="-1.20796">
        <ele>50.513268</ele>
        <time>2018-01-14T10:08:09.241Z</time>
      </trkpt>
      <trkpt lat="45.79069" lon="-1.2077">
        <ele>50.957909</ele>
        <time>2018-01-14T10:08:15.388Z</time>
      </trkpt>
      <trkpt lat="45.79074" lon="-1.2074">
        <ele>51.434803</ele>
        <time>2018-01-14T10:08:24.206Z</time>
      </trkpt>
      <trkpt lat="45.79059" lon="-1.2072">
        <ele>51.93383</ele>
        <time>2018-01-14T10:08:32.296Z</time>
      </trkpt>
      <trkpt lat="45.7904" lon="-1.20689">
        <ele>60.596378</ele>
        <time>2018-01-14T10:11:10.215Z</time>
      </trkpt>
      <trkpt lat="45.79026" lon="-1.20672">
        <ele>61.162323</ele>
        <time>2018-01-14T10:11:17.220Z</time>
      </trkpt>
      <trkpt lat="45.79027" lon="-1.20657">
        <ele>61.532005</ele>
        <time>2018-01-14T10:11:24.193Z</time>
      </trkpt>
      <trkpt lat="45.7903" lon="-1.20644">
        <ele>61.550491</ele>
        <time>2018-01-14T10:11:29.292Z</time>
      </trkpt>
      <trkpt lat="45.79033" lon="-1.20629">
        <ele>60.786133</ele>
        <time>2018-01-14T10:11:41.219Z</time>
      </trkpt>
      <trkpt lat="45.79029" lon="-1.20597">
        <ele>60.698021</ele>
        <time>2018-01-14T10:11:48.191Z</time>
      </trkpt>
      <trkpt lat="45.79034" lon="-1.2057">
        <ele>60.411644</ele>
        <time>2018-01-14T10:11:57.210Z</time>
      </trkpt>
      <trkpt lat="45.79031" lon="-1.20543">
        <ele>60.215549</ele>
        <time>2018-01-14T10:12:04.210Z</time>
      </trkpt>
      <trkpt lat="45.79022" lon="-1.20515">
        <ele>60.069675</ele>
        <time>2018-01-14T10:12:12.212Z</time>
      </trkpt>
      <trkpt lat="45.7901" lon="-1.20494">
        <ele>59.86348</ele>
        <time>2018-01-14T10:12:18.209Z</time>
      </trkpt>
      <trkpt lat="45.79003" lon="-1.20463">
        <ele>58.373283</ele>
        <time>2018-01-14T10:12:24.234Z</time>
      </trkpt>
      <trkpt lat="45.7901" lon="-1.20452">
        <ele>58.151363</ele>
        <time>2018-01-14T10:12:29.241Z</time>
      </trkpt>
      <trkpt lat="45.79013" lon="-1.20439">
        <ele>56.528084</ele>
        <time>2018-01-14T10:12:51.219Z</time>
      </trkpt>
      <trkpt lat="45.79004" lon="-1.20414">
        <ele>55.859653</ele>
        <time>2018-01-14T10:12:57.230Z</time>
      </trkpt>
      <trkpt lat="45.78999" lon="-1.20385">
        <ele>54.989395</ele>
        <time>2018-01-14T10:13:04.201Z</time>
      </trkpt>
      <trkpt lat="45.78993" lon="-1.20361">
        <ele>53.222672</ele>
        <time>2018-01-14T10:13:12.217Z</time>
      </trkpt>
      <trkpt lat="45.78985" lon="-1.20334">
        <ele>50.807232</ele>
        <time>2018-01-14T10:13:19.223Z</time>
      </trkpt>
      <trkpt lat="45.78965" lon="-1.20323">
        <ele>47.409119</ele>
        <time>2018-01-14T10:13:38.210Z</time>
      </trkpt>
      <trkpt lat="45.78956" lon="-1.20317">
        <ele>47.613819</ele>
        <time>2018-01-14T10:13:44.188Z</time>
      </trkpt>
      <trkpt lat="45.7895" lon="-1.20304">
        <ele>49.288097</ele>
        <time>2018-01-14T10:13:54.218Z</time>
      </trkpt>
      <trkpt lat="45.78938" lon="-1.20262">
        <ele>56.279045</ele>
        <time>2018-01-14T10:14:02.193Z</time>
      </trkpt>
      <trkpt lat="45.7892" lon="-1.20249">
        <ele>57.159973</ele>
        <time>2018-01-14T10:14:07.245Z</time>
      </trkpt>
      <trkpt lat="45.78907" lon="-1.20227">
        <ele>58.894009</ele>
        <time>2018-01-14T10:14:16.194Z</time>
      </trkpt>
      <trkpt lat="45.78894" lon="-1.20203">
        <ele>60.051525</ele>
        <time>2018-01-14T10:14:22.188Z</time>
      </trkpt>
      <trkpt lat="45.78893" lon="-1.20173">
        <ele>65.950417</ele>
        <time>2018-01-14T10:14:28.227Z</time>
      </trkpt>
      <trkpt lat="45.78889" lon="-1.20127">
        <ele>66.078606</ele>
        <time>2018-01-14T10:14:36.319Z</time>
      </trkpt>
      <trkpt lat="45.78872" lon="-1.20118">
        <ele>65.409584</ele>
        <time>2018-01-14T10:14:44.342Z</time>
      </trkpt>
      <trkpt lat="45.78866" lon="-1.20087">
        <ele>64.224792</ele>
        <time>2018-01-14T10:14:50.215Z</time>
      </trkpt>
      <trkpt lat="45.78859" lon="-1.2006">
        <ele>63.811966</ele>
        <time>2018-01-14T10:14:56.248Z</time>
      </trkpt>
      <trkpt lat="45.78873" lon="-1.20041">
        <ele>62.49139</ele>
        <time>2018-01-14T10:15:04.206Z</time>
      </trkpt>
      <trkpt lat="45.78879" lon="-1.2003">
        <ele>61.095043</ele>
        <time>2018-01-14T10:15:11.204Z</time>
      </trkpt>
      <trkpt lat="45.7889" lon="-1.20008">
        <ele>59.931927</ele>
        <time>2018-01-14T10:15:19.240Z</time>
      </trkpt>
      <trkpt lat="45.78882" lon="-1.19986">
        <ele>56.058044</ele>
        <time>2018-01-14T10:15:25.248Z</time>
      </trkpt>
      <trkpt lat="45.78868" lon="-1.19959">
        <ele>54.608166</ele>
        <time>2018-01-14T10:15:31.210Z</time>
      </trkpt>
      <trkpt lat="45.78855" lon="-1.19947">
        <ele>54.342964</ele>
        <time>2018-01-14T10:15:37.226Z</time>
      </trkpt>
      <trkpt lat="45.78846" lon="-1.19944">
        <ele>55.591068</ele>
        <time>2018-01-14T10:15:47.281Z</time>
      </trkpt>
      <trkpt lat="45.7884" lon="-1.19935">
        <ele>57.422474</ele>
        <time>2018-01-14T10:15:55.499Z</time>
      </trkpt>
      <trkpt lat="45.78838" lon="-1.19923">
        <ele>58.975533</ele>
        <time>2018-01-14T10:16:04.201Z</time>
      </trkpt>
      <trkpt lat="45.78836" lon="-1.19909">
        <ele>59.82127</ele>
        <time>2018-01-14T10:16:13.330Z</time>
      </trkpt>
      <trkpt lat="45.78832" lon="-1.19898">
        <ele>60.377312</ele>
        <time>2018-01-14T10:16:22.187Z</time>
      </trkpt>
      <trkpt lat="45.78825" lon="-1.1989">
        <ele>61.665638</ele>
        <time>2018-01-14T10:16:33.198Z</time>
      </trkpt>
      <trkpt lat="45.78817" lon="-1.19882">
        <ele>62.810719</ele>
        <time>2018-01-14T10:16:44.210Z</time>
      </trkpt>
      <trkpt lat="45.78815" lon="-1.19868">
        <ele>64.048515</ele>
        <time>2018-01-14T10:16:55.259Z</time>
      </trkpt>
      <trkpt lat="45.78815" lon="-1.19855">
        <ele>64.201202</ele>
        <time>2018-01-14T10:17:03.235Z</time>
      </trkpt>
      <trkpt lat="45.78803" lon="-1.19834">
        <ele>75.125908</ele>
        <time>2018-01-14T10:18:33.241Z</time>
      </trkpt>
      <trkpt lat="45.78813" lon="-1.1983">
        <ele>74.895309</ele>
        <time>2018-01-14T10:18:51.303Z</time>
      </trkpt>
      <trkpt lat="45.78828" lon="-1.19809">
        <ele>75.051552</ele>
        <time>2018-01-14T10:18:59.261Z</time>
      </trkpt>
      <trkpt lat="45.78841" lon="-1.19791">
        <ele>73.959351</ele>
        <time>2018-01-14T10:19:07.193Z</time>
      </trkpt>
      <trkpt lat="45.78853" lon="-1.19763">
        <ele>72.944283</ele>
        <time>2018-01-14T10:19:15.240Z</time>
      </trkpt>
      <trkpt lat="45.78855" lon="-1.19735">
        <ele>69.761292</ele>
        <time>2018-01-14T10:19:23.504Z</time>
      </trkpt>
      <trkpt lat="45.78848" lon="-1.19704">
        <ele>68.239838</ele>
        <time>2018-01-14T10:19:32.188Z</time>
      </trkpt>
      <trkpt lat="45.78848" lon="-1.19687">
        <ele>66.79464</ele>
        <time>2018-01-14T10:19:38.183Z</time>
      </trkpt>
      <trkpt lat="45.78837" lon="-1.1966">
        <ele>65.050797</ele>
        <time>2018-01-14T10:19:43.239Z</time>
      </trkpt>
      <trkpt lat="45.78837" lon="-1.19631">
        <ele>64.624199</ele>
        <time>2018-01-14T10:19:49.466Z</time>
      </trkpt>
      <trkpt lat="45.78839" lon="-1.19618">
        <ele>64.055923</ele>
        <time>2018-01-14T10:19:57.559Z</time>
      </trkpt>
      <trkpt lat="45.78841" lon="-1.19605">
        <ele>63.583607</ele>
        <time>2018-01-14T10:20:04.194Z</time>
      </trkpt>
      <trkpt lat="45.78849" lon="-1.19573">
        <ele>62.983654</ele>
        <time>2018-01-14T10:20:11.421Z</time>
      </trkpt>
      <trkpt lat="45.78853" lon="-1.19546">
        <ele>62.442654</ele>
        <time>2018-01-14T10:20:20.310Z</time>
      </trkpt>
      <trkpt lat="45.78848" lon="-1.19535">
        <ele>61.910786</ele>
        <time>2018-01-14T10:20:35.239Z</time>
      </trkpt>
      <trkpt lat="45.78841" lon="-1.19524">
        <ele>62.505306</ele>
        <time>2018-01-14T10:20:41.222Z</time>
      </trkpt>
      <trkpt lat="45.78842" lon="-1.1951">
        <ele>63.876686</ele>
        <time>2018-01-14T10:20:50.185Z</time>
      </trkpt>
      <trkpt lat="45.7884" lon="-1.19497">
        <ele>64.607803</ele>
        <time>2018-01-14T10:20:57.292Z</time>
      </trkpt>
      <trkpt lat="45.78843" lon="-1.19465">
        <ele>64.510765</ele>
        <time>2018-01-14T10:21:04.182Z</time>
      </trkpt>
      <trkpt lat="45.78854" lon="-1.19443">
        <ele>63.503551</ele>
        <time>2018-01-14T10:21:09.227Z</time>
      </trkpt>
      <trkpt lat="45.78861" lon="-1.19414">
        <ele>62.745831</ele>
        <time>2018-01-14T10:21:15.198Z</time>
      </trkpt>
      <trkpt lat="45.78854" lon="-1.19388">
        <ele>61.477039</ele>
        <time>2018-01-14T10:21:23.218Z</time>
      </trkpt>
      <trkpt lat="45.78867" lon="-1.1935">
        <ele>55.407356</ele>
        <time>2018-01-14T10:21:30.244Z</time>
      </trkpt>
      <trkpt lat="45.78872" lon="-1.19319">
        <ele>53.506439</ele>
        <time>2018-01-14T10:21:37.212Z</time>
      </trkpt>
      <trkpt lat="45.78874" lon="-1.19288">
        <ele>52.7043</ele>
        <time>2018-01-14T10:21:44.204Z</time>
      </trkpt>
      <trkpt lat="45.78869" lon="-1.19252">
        <ele>52.941151</ele>
        <time>2018-01-14T10:21:58.256Z</time>
      </trkpt>
      <trkpt lat="45.78871" lon="-1.19237">
        <ele>52.935535</ele>
        <time>2018-01-14T10:22:05.239Z</time>
      </trkpt>
      <trkpt lat="45.78871" lon="-1.19223">
        <ele>53.001492</ele>
        <time>2018-01-14T10:22:10.390Z</time>
      </trkpt>
      <trkpt lat="45.78874" lon="-1.19194">
        <ele>53.832066</ele>
        <time>2018-01-14T10:22:20.186Z</time>
      </trkpt>
      <trkpt lat="45.78874" lon="-1.19179">
        <ele>54.420708</ele>
        <time>2018-01-14T10:22:26.196Z</time>
      </trkpt>
      <trkpt lat="45.78872" lon="-1.19165">
        <ele>55.346943</ele>
        <time>2018-01-14T10:22:34.201Z</time>
      </trkpt>
      <trkpt lat="45.78873" lon="-1.19152">
        <ele>56.671135</ele>
        <time>2018-01-14T10:22:44.230Z</time>
      </trkpt>
      <trkpt lat="45.78877" lon="-1.19126">
        <ele>57.466991</ele>
        <time>2018-01-14T10:22:52.209Z</time>
      </trkpt>
      <trkpt lat="45.78877" lon="-1.19098">
        <ele>57.94809</ele>
        <time>2018-01-14T10:22:58.184Z</time>
      </trkpt>
      <trkpt lat="45.78879" lon="-1.19067">
        <ele>58.225372</ele>
        <time>2018-01-14T10:23:05.242Z</time>
      </trkpt>
      <trkpt lat="45.78879" lon="-1.19035">
        <ele>58.210716</ele>
        <time>2018-01-14T10:23:12.184Z</time>
      </trkpt>
      <trkpt lat="45.78878" lon="-1.19003">
        <ele>57.89011</ele>
        <time>2018-01-14T10:23:18.189Z</time>
      </trkpt>
      <trkpt lat="45.78877" lon="-1.18975">
        <ele>58.274929</ele>
        <time>2018-01-14T10:23:24.197Z</time>
      </trkpt>
      <trkpt lat="45.78876" lon="-1.18945">
        <ele>58.309769</ele>
        <time>2018-01-14T10:23:30.187Z</time>
      </trkpt>
      <trkpt lat="45.78873" lon="-1.18917">
        <ele>58.421509</ele>
        <time>2018-01-14T10:23:36.203Z</time>
      </trkpt>
      <trkpt lat="45.78866" lon="-1.18888">
        <ele>58.584347</ele>
        <time>2018-01-14T10:23:42.191Z</time>
      </trkpt>
      <trkpt lat="45.78855" lon="-1.18863">
        <ele>58.433285</ele>
        <time>2018-01-14T10:23:48.197Z</time>
      </trkpt>
      <trkpt lat="45.78842" lon="-1.18839">
        <ele>57.937889</ele>
        <time>2018-01-14T10:23:54.185Z</time>
      </trkpt>
      <trkpt lat="45.78829" lon="-1.18816">
        <ele>55.203117</ele>
        <time>2018-01-14T10:23:59.242Z</time>
      </trkpt>
      <trkpt lat="45.78809" lon="-1.18786">
        <ele>54.76963</ele>
        <time>2018-01-14T10:24:06.213Z</time>
      </trkpt>
      <trkpt lat="45.78793" lon="-1.18764">
        <ele>53.980675</ele>
        <time>2018-01-14T10:24:12.184Z</time>
      </trkpt>
      <trkpt lat="45.7877" lon="-1.18732">
        <ele>59.04591</ele>
        <time>2018-01-14T10:24:19.241Z</time>
      </trkpt>
      <trkpt lat="45.78745" lon="-1.18697">
        <ele>59.683273</ele>
        <time>2018-01-14T10:24:27.208Z</time>
      </trkpt>
      <trkpt lat="45.78729" lon="-1.18674">
        <ele>58.901306</ele>
        <time>2018-01-14T10:24:33.329Z</time>
      </trkpt>
      <trkpt lat="45.78712" lon="-1.18652">
        <ele>58.31459</ele>
        <time>2018-01-14T10:24:39.346Z</time>
      </trkpt>
      <trkpt lat="45.78697" lon="-1.18629">
        <ele>57.859428</ele>
        <time>2018-01-14T10:24:45.246Z</time>
      </trkpt>
      <trkpt lat="45.78684" lon="-1.18604">
        <ele>57.861912</ele>
        <time>2018-01-14T10:24:51.264Z</time>
      </trkpt>
      <trkpt lat="45.78668" lon="-1.18567">
        <ele>58.545818</ele>
        <time>2018-01-14T10:24:57.241Z</time>
      </trkpt>
      <trkpt lat="45.78659" lon="-1.18537">
        <ele>58.909363</ele>
        <time>2018-01-14T10:25:03.248Z</time>
      </trkpt>
      <trkpt lat="45.78647" lon="-1.18488">
        <ele>57.895508</ele>
        <time>2018-01-14T10:25:11.454Z</time>
      </trkpt>
      <trkpt lat="45.78642" lon="-1.18451">
        <ele>60.222435</ele>
        <time>2018-01-14T10:25:17.271Z</time>
      </trkpt>
      <trkpt lat="45.78636" lon="-1.18407">
        <ele>62.381592</ele>
        <time>2018-01-14T10:25:24.208Z</time>
      </trkpt>
      <trkpt lat="45.78636" lon="-1.18372">
        <ele>61.375282</ele>
        <time>2018-01-14T10:25:30.190Z</time>
      </trkpt>
      <trkpt lat="45.78642" lon="-1.18339">
        <ele>60.770157</ele>
        <time>2018-01-14T10:25:36.182Z</time>
      </trkpt>
      <trkpt lat="45.78651" lon="-1.18296">
        <ele>57.462128</ele>
        <time>2018-01-14T10:25:43.308Z</time>
      </trkpt>
      <trkpt lat="45.78659" lon="-1.18253">
        <ele>57.550571</ele>
        <time>2018-01-14T10:25:50.189Z</time>
      </trkpt>
      <trkpt lat="45.78666" lon="-1.18224">
        <ele>58.164654</ele>
        <time>2018-01-14T10:25:55.215Z</time>
      </trkpt>
      <trkpt lat="45.78681" lon="-1.18184">
        <ele>55.342892</ele>
        <time>2018-01-14T10:26:02.198Z</time>
      </trkpt>
      <trkpt lat="45.78694" lon="-1.18144">
        <ele>55.639267</ele>
        <time>2018-01-14T10:26:08.357Z</time>
      </trkpt>
      <trkpt lat="45.78706" lon="-1.18115">
        <ele>54.931068</ele>
        <time>2018-01-14T10:26:14.197Z</time>
      </trkpt>
      <trkpt lat="45.78717" lon="-1.18087">
        <ele>54.93647</ele>
        <time>2018-01-14T10:26:20.240Z</time>
      </trkpt>
      <trkpt lat="45.78728" lon="-1.18061">
        <ele>53.517513</ele>
        <time>2018-01-14T10:26:25.298Z</time>
      </trkpt>
      <trkpt lat="45.7874" lon="-1.18029">
        <ele>52.5256</ele>
        <time>2018-01-14T10:26:31.252Z</time>
      </trkpt>
      <trkpt lat="45.7875" lon="-1.17987">
        <ele>54.396271</ele>
        <time>2018-01-14T10:26:38.216Z</time>
      </trkpt>
      <trkpt lat="45.7876" lon="-1.17954">
        <ele>54.505974</ele>
        <time>2018-01-14T10:26:44.186Z</time>
      </trkpt>
      <trkpt lat="45.78769" lon="-1.17923">
        <ele>54.641121</ele>
        <time>2018-01-14T10:26:50.186Z</time>
      </trkpt>
      <trkpt lat="45.78781" lon="-1.17896">
        <ele>54.557537</ele>
        <time>2018-01-14T10:26:56.203Z</time>
      </trkpt>
      <trkpt lat="45.78792" lon="-1.17868">
        <ele>54.748714</ele>
        <time>2018-01-14T10:27:02.191Z</time>
      </trkpt>
      <trkpt lat="45.78803" lon="-1.17836">
        <ele>56.967171</ele>
        <time>2018-01-14T10:27:08.311Z</time>
      </trkpt>
      <trkpt lat="45.78813" lon="-1.17808">
        <ele>57.273361</ele>
        <time>2018-01-14T10:27:14.187Z</time>
      </trkpt>
      <trkpt lat="45.78822" lon="-1.17775">
        <ele>57.47958</ele>
        <time>2018-01-14T10:27:20.230Z</time>
      </trkpt>
      <trkpt lat="45.7883" lon="-1.17748">
        <ele>60.439552</ele>
        <time>2018-01-14T10:27:25.255Z</time>
      </trkpt>
      <trkpt lat="45.78843" lon="-1.17705">
        <ele>62.915684</ele>
        <time>2018-01-14T10:27:32.300Z</time>
      </trkpt>
      <trkpt lat="45.78854" lon="-1.1766">
        <ele>61.447445</ele>
        <time>2018-01-14T10:27:40.243Z</time>
      </trkpt>
      <trkpt lat="45.78865" lon="-1.17631">
        <ele>61.209751</ele>
        <time>2018-01-14T10:27:45.347Z</time>
      </trkpt>
      <trkpt lat="45.78879" lon="-1.17591">
        <ele>60.383816</ele>
        <time>2018-01-14T10:27:52.297Z</time>
      </trkpt>
      <trkpt lat="45.78896" lon="-1.17551">
        <ele>61.469002</ele>
        <time>2018-01-14T10:27:59.293Z</time>
      </trkpt>
      <trkpt lat="45.78906" lon="-1.17519">
        <ele>58.841324</ele>
        <time>2018-01-14T10:28:05.517Z</time>
      </trkpt>
      <trkpt lat="45.78922" lon="-1.1748">
        <ele>56.130932</ele>
        <time>2018-01-14T10:28:11.251Z</time>
      </trkpt>
      <trkpt lat="45.78939" lon="-1.17444">
        <ele>54.724312</ele>
        <time>2018-01-14T10:28:17.276Z</time>
      </trkpt>
      <trkpt lat="45.78953" lon="-1.1741">
        <ele>54.591995</ele>
        <time>2018-01-14T10:28:23.284Z</time>
      </trkpt>
      <trkpt lat="45.78968" lon="-1.17364">
        <ele>57.763817</ele>
        <time>2018-01-14T10:28:31.260Z</time>
      </trkpt>
      <trkpt lat="45.78983" lon="-1.17321">
        <ele>55.011147</ele>
        <time>2018-01-14T10:28:38.207Z</time>
      </trkpt>
      <trkpt lat="45.78995" lon="-1.1729">
        <ele>54.520546</ele>
        <time>2018-01-14T10:28:43.302Z</time>
      </trkpt>
      <trkpt lat="45.79011" lon="-1.1725">
        <ele>53.604126</ele>
        <time>2018-01-14T10:28:49.322Z</time>
      </trkpt>
      <trkpt lat="45.79026" lon="-1.17212">
        <ele>52.313545</ele>
        <time>2018-01-14T10:28:55.392Z</time>
      </trkpt>
      <trkpt lat="45.79038" lon="-1.17169">
        <ele>53.347942</ele>
        <time>2018-01-14T10:29:01.225Z</time>
      </trkpt>
      <trkpt lat="45.7905" lon="-1.17129">
        <ele>53.838482</ele>
        <time>2018-01-14T10:29:07.384Z</time>
      </trkpt>
      <trkpt lat="45.79065" lon="-1.17082">
        <ele>52.309906</ele>
        <time>2018-01-14T10:29:13.220Z</time>
      </trkpt>
      <trkpt lat="45.79081" lon="-1.1704">
        <ele>53.870209</ele>
        <time>2018-01-14T10:29:19.498Z</time>
      </trkpt>
      <trkpt lat="45.79097" lon="-1.16997">
        <ele>54.028938</ele>
        <time>2018-01-14T10:29:25.224Z</time>
      </trkpt>
      <trkpt lat="45.79113" lon="-1.16958">
        <ele>54.068203</ele>
        <time>2018-01-14T10:29:31.414Z</time>
      </trkpt>
      <trkpt lat="45.79126" lon="-1.16914">
        <ele>53.6395</ele>
        <time>2018-01-14T10:29:37.336Z</time>
      </trkpt>
      <trkpt lat="45.79141" lon="-1.16877">
        <ele>54.289757</ele>
        <time>2018-01-14T10:29:43.221Z</time>
      </trkpt>
      <trkpt lat="45.79155" lon="-1.16836">
        <ele>55.259914</ele>
        <time>2018-01-14T10:29:49.224Z</time>
      </trkpt>
      <trkpt lat="45.7917" lon="-1.16796">
        <ele>54.684479</ele>
        <time>2018-01-14T10:29:55.424Z</time>
      </trkpt>
      <trkpt lat="45.79184" lon="-1.16753">
        <ele>56.921055</ele>
        <time>2018-01-14T10:30:01.209Z</time>
      </trkpt>
      <trkpt lat="45.79196" lon="-1.16713">
        <ele>57.299255</ele>
        <time>2018-01-14T10:30:07.263Z</time>
      </trkpt>
      <trkpt lat="45.79205" lon="-1.16683">
        <ele>59.635487</ele>
        <time>2018-01-14T10:30:12.363Z</time>
      </trkpt>
      <trkpt lat="45.79222" lon="-1.16641">
        <ele>60.135723</ele>
        <time>2018-01-14T10:30:19.602Z</time>
      </trkpt>
      <trkpt lat="45.79239" lon="-1.166">
        <ele>59.353706</ele>
        <time>2018-01-14T10:30:26.198Z</time>
      </trkpt>
      <trkpt lat="45.7925" lon="-1.16565">
        <ele>59.891811</ele>
        <time>2018-01-14T10:30:32.202Z</time>
      </trkpt>
      <trkpt lat="45.79266" lon="-1.16527">
        <ele>59.392429</ele>
        <time>2018-01-14T10:30:39.273Z</time>
      </trkpt>
      <trkpt lat="45.79281" lon="-1.16487">
        <ele>57.280201</ele>
        <time>2018-01-14T10:30:46.230Z</time>
      </trkpt>
      <trkpt lat="45.79294" lon="-1.16454">
        <ele>55.367569</ele>
        <time>2018-01-14T10:30:52.185Z</time>
      </trkpt>
      <trkpt lat="45.79305" lon="-1.16427">
        <ele>53.58041</ele>
        <time>2018-01-14T10:30:57.306Z</time>
      </trkpt>
      <trkpt lat="45.79314" lon="-1.1638">
        <ele>54.096848</ele>
        <time>2018-01-14T10:31:04.184Z</time>
      </trkpt>
      <trkpt lat="45.79316" lon="-1.16335">
        <ele>52.199631</ele>
        <time>2018-01-14T10:31:10.191Z</time>
      </trkpt>
      <trkpt lat="45.79316" lon="-1.16291">
        <ele>51.270802</ele>
        <time>2018-01-14T10:31:16.192Z</time>
      </trkpt>
      <trkpt lat="45.79306" lon="-1.16246">
        <ele>53.28294</ele>
        <time>2018-01-14T10:31:22.245Z</time>
      </trkpt>
      <trkpt lat="45.79295" lon="-1.16201">
        <ele>58.642422</ele>
        <time>2018-01-14T10:31:29.437Z</time>
      </trkpt>
      <trkpt lat="45.79315" lon="-1.16194">
        <ele>58.714634</ele>
        <time>2018-01-14T10:31:36.182Z</time>
      </trkpt>
      <trkpt lat="45.79322" lon="-1.16221">
        <ele>58.848351</ele>
        <time>2018-01-14T10:31:42.223Z</time>
      </trkpt>
      <trkpt lat="45.79324" lon="-1.16253">
        <ele>59.091228</ele>
        <time>2018-01-14T10:31:48.207Z</time>
      </trkpt>
      <trkpt lat="45.79326" lon="-1.16281">
        <ele>59.299286</ele>
        <time>2018-01-14T10:31:55.360Z</time>
      </trkpt>
      <trkpt lat="45.7933" lon="-1.16294">
        <ele>60.994526</ele>
        <time>2018-01-14T10:32:48.216Z</time>
      </trkpt>
      <trkpt lat="45.79324" lon="-1.16305">
        <ele>58.613991</ele>
        <time>2018-01-14T10:33:24.182Z</time>
      </trkpt>
    </trkseg>
  </trk>
</gpx>